Last 7 Days

Pierce College

10 Minute Data | America/Los_Angeles
as of 9/3/26 10:09 PM PDT
Date & Time Temp Max (°F) Temp Min (°F) RH (%) Dew Pt (°F) Latest Rain (In) Soil Temp (°F) Pressure (mb) Wind Spd (mph) Wind Dir (°) Wind Gust (mph) Wind Gst Dir (°) Leaf Wet Raw (mV) Net Radiation (W/m²) Evap Pan Wind Spd (mph) Evap Pan WindRun (miles) Evap Pan H2O Temp (°F) Evap Pan Level (In) Season Precip (In)
9/3/26 - 2150 68.0 67.3 60 53.2 0.00 87.9 1,013.4 0.7 S | 185 1.8 SW | 223 264 -70 0.0 16.5 - 5.3 0.00
9/3/26 - 2140 68.2 67.7 59 53.1 0.00 88.1 1,013.3 2.0 SW | 229 4.1 W | 259 264 -70 0.2 16.5 - 5.3 0.00
9/3/26 - 2130 68.2 67.8 60 53.6 0.00 88.1 1,013.3 2.0 SW | 232 5.4 SW | 234 264 -71 0.3 16.5 - 5.4 0.00
9/3/26 - 2120 68.6 67.9 60 53.7 0.00 87.9 1,013.3 1.3 SSW | 207 2.7 SSW | 211 264 -71 0.0 16.4 - 5.4 0.00
9/3/26 - 2110 69.0 68.5 58 53.4 0.00 87.8 1,013.3 1.1 SSW | 196 2.9 SSW | 195 264 -72 0.0 16.4 - 5.4 0.00
9/3/26 - 2100 69.3 68.8 57 53.2 0.00 87.7 1,013.1 2.2 SW | 221 4.5 SW | 217 264 -73 0.1 16.4 - 5.4 0.00
9/3/26 - 2050 70.1 69.1 57 53.6 0.00 86.7 1,013.0 2.0 SW | 219 3.3 SW | 234 264 -73 0.3 16.4 - 5.4 0.00
9/3/26 - 2040 70.4 69.9 56 54.0 0.00 86.7 1,012.9 2.2 SW | 235 4.4 WSW | 238 264 -74 0.5 16.3 - 5.4 0.00
9/3/26 - 2030 70.7 70.2 56 54.0 0.00 86.6 1,012.8 1.4 WSW | 240 3.4 SW | 230 264 -75 0.2 16.2 - 5.4 0.00
9/3/26 - 2020 71.4 70.7 54 53.6 0.00 86.9 1,012.7 1.6 SW | 225 3.8 WSW | 253 263 -76 0.2 16.2 - 5.4 0.00
9/3/26 - 2010 72.6 71.4 51 53.1 0.00 87.2 1,012.7 1.1 WSW | 246 3.3 WSW | 247 263 -78 0.4 16.2 - 5.4 0.00
9/3/26 - 2000 73.0 72.4 51 53.4 0.00 87.1 1,012.6 0.9 WNW | 288 3.0 W | 262 263 -79 0.6 16.1 - 5.4 0.00
9/3/26 - 1950 73.3 72.7 51 53.6 0.00 87.3 1,012.5 0.6 WNW | 294 3.2 WNW | 287 263 -79 0.5 16.0 - 5.4 0.00
9/3/26 - 1940 73.8 73.1 50 53.6 0.00 87.7 1,012.5 1.7 W | 281 6.7 W | 272 263 -79 1.1 15.9 - 5.4 0.00
9/3/26 - 1930 74.6 73.8 49 53.8 0.00 87.9 1,012.4 0.8 WNW | 283 5.4 NW | 323 263 -81 0.7 15.7 - 5.4 0.00
9/3/26 - 1920 75.6 74.5 49 54.3 0.00 87.7 1,012.4 0.4 NW | 317 2.0 W | 264 262 -80 0.5 15.6 - 5.4 0.00
9/3/26 - 1910 76.3 75.3 48 54.8 0.00 87.6 1,012.5 0.1 NNW | 331 1.6 NW | 314 262 -76 0.2 15.5 - 5.4 0.00
9/3/26 - 1900 77.5 76.2 47 55.2 0.00 87.5 1,012.4 0.6 NNW | 337 4.8 WNW | 286 262 -64 0.7 15.5 - 5.4 0.00
9/3/26 - 1850 78.2 77.3 47 55.7 0.00 87.2 1,012.4 0.7 NNW | 335 4.2 WNW | 291 262 -45 0.3 15.4 - 5.4 0.00
9/3/26 - 1840 78.9 77.9 47 56.3 0.00 87.2 1,012.3 2.1 WNW | 285 6.3 WNW | 287 262 -32 1.6 15.3 - 5.4 0.00
9/3/26 - 1830 79.1 78.3 46 56.5 0.00 87.0 1,012.3 2.7 W | 274 6.6 W | 267 262 -15 1.9 15.1 - 5.4 0.00
9/3/26 - 1820 79.4 78.4 45 55.9 0.00 86.7 1,012.3 3.4 WSW | 248 8.1 W | 272 262 7 2.1 14.8 - 5.4 0.00
9/3/26 - 1810 79.4 78.6 43 54.5 0.00 86.7 1,012.3 2.1 S | 191 4.2 S | 189 262 32 0.6 14.4 - 5.4 0.00
9/3/26 - 1800 80.3 79.3 41 53.9 0.00 86.5 1,012.3 2.5 S | 190 4.7 WSW | 238 261 58 1.5 14.3 - 5.4 0.00
9/3/26 - 1750 80.5 79.6 40 53.7 0.00 86.3 1,012.4 2.0 S | 174 5.0 SSE | 159 261 85 1.2 14.0 - 5.4 0.00
9/3/26 - 1740 80.5 79.6 41 54.2 0.00 86.3 1,012.3 3.0 S | 183 5.8 SW | 230 261 112 1.4 13.8 - 5.4 0.00
9/3/26 - 1730 81.1 80.2 40 54.3 0.00 86.2 1,012.3 3.3 S | 171 6.6 SSW | 199 261 137 1.9 13.6 - 5.4 0.00
9/3/26 - 1720 81.5 81.0 40 54.4 0.00 86.1 1,012.3 2.6 S | 177 5.1 S | 176 261 163 1.4 13.3 - 5.4 0.00
9/3/26 - 1710 81.5 81.0 40 54.3 0.00 86.0 1,012.4 3.0 S | 178 5.3 SSW | 206 261 187 1.5 13.1 - 5.4 0.00
9/3/26 - 1700 81.7 81.0 39 54.2 0.00 86.0 1,012.5 2.8 SSE | 161 6.5 S | 184 261 210 1.5 12.8 - 5.4 0.00
9/3/26 - 1650 81.9 81.3 39 54.5 0.00 86.0 1,012.5 3.0 SE | 141 5.8 SE | 134 261 230 1.1 12.6 - 5.4 0.00
9/3/26 - 1640 82.1 81.1 39 54.4 0.00 85.6 1,012.6 1.8 SE | 145 5.0 SE | 131 261 252 1.0 12.4 - 5.4 0.00
9/3/26 - 1630 81.6 80.6 40 54.3 0.00 85.8 1,012.7 2.8 ESE | 119 6.7 SE | 140 260 273 1.2 12.2 - 5.4 0.00
9/3/26 - 1620 81.6 80.4 40 54.5 0.00 85.7 1,012.7 2.9 SE | 126 5.8 SE | 127 261 292 1.3 12.0 - 5.4 0.00
9/3/26 - 1610 81.1 80.3 41 54.7 0.00 85.5 1,012.8 3.8 S | 186 7.0 S | 179 261 312 2.1 11.8 - 5.4 0.00
9/3/26 - 1600 80.6 79.9 41 54.6 0.00 85.5 1,012.9 4.1 S | 188 7.6 WSW | 241 261 331 2.2 11.4 - 5.4 0.00
9/3/26 - 1550 81.5 80.4 41 55.2 0.00 85.0 1,012.9 3.9 S | 171 9.7 SSW | 196 260 348 2.2 11.1 - 5.4 0.00
9/3/26 - 1540 81.9 80.8 41 55.2 0.00 84.9 1,013.0 3.5 S | 187 6.1 SE | 140 261 362 2.2 10.7 - 5.4 0.00
9/3/26 - 1530 82.5 81.4 40 55.3 0.00 84.8 1,013.1 3.7 SSE | 168 7.8 SE | 135 261 381 2.2 10.4 - 5.4 0.00
9/3/26 - 1520 82.6 81.7 40 55.3 0.00 84.3 1,013.2 3.0 SSW | 196 6.8 S | 187 261 397 2.1 10.0 - 5.4 0.00
9/3/26 - 1510 82.1 81.3 40 55.2 0.00 84.3 1,013.2 3.4 SE | 131 9.9 SE | 139 261 414 1.8 9.6 - 5.5 0.00
9/3/26 - 1500 82.4 81.4 39 54.8 0.00 84.2 1,013.3 3.7 SE | 145 7.5 SE | 127 261 425 1.9 9.3 - 5.5 0.00
9/3/26 - 1450 83.1 81.4 39 54.7 0.00 84.1 1,013.4 3.3 SSE | 160 6.8 WSW | 239 260 438 1.8 9.0 - 5.5 0.00
9/3/26 - 1440 81.4 80.1 41 54.6 0.00 84.1 1,013.5 3.7 SSW | 192 6.5 W | 263 260 453 2.0 8.7 - 5.5 0.00
9/3/26 - 1430 81.4 79.8 41 54.4 0.00 84.0 1,013.5 4.8 SSW | 201 9.0 SSW | 213 260 464 2.7 8.4 - 5.5 0.00
9/3/26 - 1420 82.0 80.4 39 53.8 0.00 83.9 1,013.5 3.4 SSE | 161 9.4 E | 89 260 474 1.6 7.9 - 5.5 0.00
9/3/26 - 1410 81.8 80.5 39 53.7 0.00 84.3 1,013.6 4.5 S | 174 7.8 SSW | 208 260 485 2.4 7.7 - 5.5 0.00
9/3/26 - 1400 82.0 80.0 39 54.0 0.00 84.5 1,013.7 3.3 S | 190 6.3 S | 188 260 490 2.1 7.3 - 5.5 0.00
9/3/26 - 1350 81.2 79.9 39 53.7 0.00 84.5 1,013.8 4.3 S | 186 8.6 SW | 225 261 500 2.6 6.9 - 5.5 0.00
9/3/26 - 1340 80.8 79.3 40 53.7 0.00 84.8 1,013.8 4.6 SSW | 204 9.5 SW | 233 261 506 3.0 6.5 - 5.5 0.00
9/3/26 - 1330 79.9 78.9 42 54.0 0.00 85.0 1,013.9 5.8 SSW | 202 9.5 SW | 221 261 512 3.6 6.0 - 5.5 0.00
9/3/26 - 1320 81.1 79.9 40 53.8 0.00 85.0 1,013.9 4.5 SSW | 197 9.4 SSW | 193 260 509 2.7 5.4 - 5.5 0.00
9/3/26 - 1310 81.5 79.9 39 53.8 0.00 85.2 1,014.0 3.4 S | 185 9.2 SSW | 211 261 511 2.3 4.9 - 5.5 0.00
9/3/26 - 1300 82.7 81.2 39 54.3 0.00 85.3 1,014.1 2.5 SSE | 164 5.0 S | 169 261 506 1.4 4.6 - 5.5 0.00
9/3/26 - 1250 83.7 81.5 39 55.5 0.00 85.1 1,014.2 2.5 WNW | 300 8.1 WSW | 242 260 503 1.8 4.3 - 5.5 0.00
9/3/26 - 1240 82.6 81.2 41 55.8 0.00 85.0 1,014.4 1.9 ESE | 111 5.2 SSW | 213 260 496 1.0 4.0 - 5.5 0.00
9/3/26 - 1230 82.7 81.7 39 54.9 0.00 84.8 1,014.5 1.9 E | 96 4.9 E | 93 261 502 1.2 3.8 - 5.5 0.00
9/3/26 - 1220 81.9 79.8 40 54.4 0.00 84.7 1,014.7 2.1 ESE | 115 6.0 ESE | 122 260 495 1.3 3.6 - 5.5 0.00
9/3/26 - 1210 80.5 79.4 41 54.2 0.00 84.6 1,014.8 1.8 SE | 144 4.0 E | 81 260 492 1.3 3.4 - 5.5 0.00
9/3/26 - 1200 79.9 78.5 43 54.8 0.00 84.6 1,015.0 2.6 ESE | 121 8.5 SSW | 212 261 486 1.3 3.2 - 5.5 0.00
9/3/26 - 1150 79.6 78.3 44 55.0 0.00 84.4 1,015.1 1.8 E | 101 6.3 SSW | 203 261 477 1.1 3.0 - 5.5 0.00
9/3/26 - 1140 79.6 77.6 45 55.6 0.00 84.4 1,015.2 2.5 ENE | 72 6.5 NE | 56 260 472 1.1 2.8 - 5.5 0.00
9/3/26 - 1130 79.2 77.1 46 55.8 0.00 84.3 1,015.3 1.8 ENE | 57 4.9 ESE | 113 261 462 1.2 2.6 - 5.5 0.00
9/3/26 - 1120 78.3 76.8 47 55.7 0.00 84.2 1,015.4 2.7 E | 90 6.4 E | 83 261 456 1.4 2.4 - 5.5 0.00
9/3/26 - 1110 78.5 76.8 47 55.9 0.00 84.1 1,015.4 2.5 E | 80 6.2 E | 87 261 441 1.4 2.2 - 5.5 0.00
9/3/26 - 1100 78.2 77.0 47 56.2 0.00 84.2 1,015.5 2.3 E | 90 5.0 SE | 142 261 433 1.0 2.0 - 5.5 0.00
9/3/26 - 1050 78.0 77.0 48 56.4 0.00 84.1 1,015.6 1.7 E | 90 4.5 ESE | 122 261 417 1.1 1.8 - 5.5 0.00
9/3/26 - 1040 77.6 76.7 49 56.6 0.00 84.2 1,015.6 1.9 ENE | 78 4.7 SE | 138 261 407 1.2 1.6 - 5.5 0.00
9/3/26 - 1030 77.5 76.3 50 56.8 0.00 84.3 1,015.6 1.8 ENE | 62 5.8 E | 80 261 394 1.3 1.4 - 5.5 0.00
9/3/26 - 1020 76.4 75.1 52 56.7 0.00 84.3 1,015.6 2.4 ENE | 61 6.5 E | 93 262 382 1.3 1.2 - 5.5 0.00
9/3/26 - 1010 76.0 74.4 53 56.8 0.00 84.5 1,015.6 2.4 ENE | 58 6.9 ENE | 76 261 362 0.8 1.0 - 5.5 0.00
9/3/26 - 1000 76.2 74.5 53 57.2 0.00 84.4 1,015.5 1.4 NE | 41 3.0 NE | 39 261 349 0.4 0.8 - 5.5 0.00
9/3/26 - 0950 74.6 73.4 56 57.3 0.00 84.5 1,015.5 1.4 ENE | 59 4.1 ESE | 105 262 340 0.8 0.8 - 5.5 0.00
9/3/26 - 0940 73.7 72.9 57 57.2 0.00 84.7 1,015.5 1.1 NNE | 15 2.9 NNE | 16 262 290 0.4 0.6 - 5.5 0.00
9/3/26 - 0930 73.4 72.1 58 57.1 0.00 84.7 1,015.5 1.6 ENE | 61 4.5 E | 80 262 281 0.4 0.6 - 5.5 0.00
9/3/26 - 0920 72.9 72.2 58 56.9 0.00 84.5 1,015.6 1.1 ENE | 62 3.8 ENE | 63 262 256 0.5 0.5 - 5.5 0.00
9/3/26 - 0910 72.6 71.7 58 56.9 0.00 84.5 1,015.6 1.2 E | 95 3.4 ENE | 68 262 229 0.5 0.4 37.8 5.5 0.00
9/3/26 - 0900 71.6 70.6 60 56.7 0.00 84.3 1,015.6 1.1 NE | 51 4.3 ENE | 69 262 220 0.3 0.3 77.4 5.5 0.00
9/3/26 - 0850 71.5 70.4 61 56.6 0.00 84.3 1,015.6 1.2 NE | 47 4.9 ENE | 73 262 201 0.3 0.3 - 5.5 0.00
9/3/26 - 0840 70.7 68.7 64 57.0 0.00 84.3 1,015.6 1.2 ENE | 65 4.4 E | 100 263 186 0.2 0.2 - 5.5 0.00
9/3/26 - 0830 68.8 66.9 68 56.8 0.00 84.1 1,015.6 0.2 NNE | 20 1.7 NNW | 338 263 129 0.0 0.2 - 5.5 0.00
9/3/26 - 0820 67.1 66.3 70 56.6 0.00 84.1 1,015.6 0.5 SE | 143 2.8 SE | 145 266 19 0.1 0.2 - 5.5 0.00
9/3/26 - 0810 66.6 66.3 70 56.4 0.00 84.3 1,015.6 1.8 SE | 128 5.3 SE | 143 266 35 0.3 0.2 - 5.5 0.00
9/3/26 - 0800 66.6 66.2 71 56.6 0.00 84.1 1,015.6 1.9 ESE | 111 4.1 SE | 135 266 22 0.2 0.1 - 5.5 0.00
9/3/26 - 0750 66.5 66.1 71 56.7 0.00 84.2 1,015.5 1.4 E | 95 3.3 SE | 130 266 37 0.1 0.1 91.2 5.5 0.00
9/3/26 - 0740 66.4 65.7 72 56.7 0.00 84.5 1,015.4 0.7 ENE | 67 3.0 E | 88 266 31 0.2 0.1 96.2 5.5 0.00
9/3/26 - 0730 66.1 65.8 72 56.8 0.00 85.0 1,015.3 0.9 E | 79 4.2 ESE | 108 266 19 0.1 0.0 - 5.5 0.00
9/3/26 - 0720 65.9 65.5 73 56.9 0.00 85.2 1,015.3 0.6 E | 82 2.3 ESE | 109 266 6 0.1 0.0 - 5.5 0.00
9/3/26 - 0710 65.6 65.3 74 56.9 0.00 85.5 1,015.2 0.4 NNE | 22 1.4 NNE | 20 266 1 0.0 0.0 - 5.5 0.00
9/3/26 - 0700 65.4 65.0 75 57.0 0.00 85.7 1,015.2 0.1 NNE | 29 0.8 NNE | 28 266 -7 0.0 0.0 - 5.5 0.00
9/3/26 - 0650 65.2 64.7 75 57.0 0.00 85.9 1,015.1 0.2 NNE | 26 1.8 N | 7 266 -13 0.0 0.0 - 5.5 0.00
9/3/26 - 0640 65.0 64.6 76 57.2 0.00 86.1 1,015.1 0.2 NNE | 21 1.8 NNE | 19 266 -13 0.0 0.0 - 5.5 0.00
9/3/26 - 0630 64.8 64.5 77 57.1 0.00 86.2 1,015.2 0.3 NNE | 25 2.1 NNE | 18 266 -15 0.0 0.0 - 5.5 0.00
9/3/26 - 0620 64.7 64.4 77 57.1 0.00 85.6 1,015.1 0.3 NNE | 20 1.5 NNE | 25 266 -14 0.0 0.0 - 5.5 0.00
9/3/26 - 0610 64.6 64.2 77 57.2 0.00 85.2 1,015.2 0.2 NNE | 22 1.3 NNE | 12 266 -13 0.0 0.0 - 5.5 0.00
9/3/26 - 0600 64.6 64.1 75 56.4 0.00 85.3 1,015.1 0.7 NNE | 29 1.8 N | 7 267 -12 0.0 0.0 - 5.5 0.00
9/3/26 - 0550 64.2 63.8 71 54.3 0.00 85.7 1,015.2 0.0 E | 99 1.3 ESE | 116 266 -13 0.0 0.0 - 5.5 0.00
9/3/26 - 0540 64.0 63.4 71 54.1 0.00 85.5 1,015.2 0.2 ESE | 113 0.9 ESE | 116 266 -14 0.0 0.0 - 5.5 0.00
9/3/26 - 0530 63.6 62.8 72 54.3 0.00 85.6 1,015.1 0.2 NNE | 27 1.1 N | 2 266 -12 0.0 0.0 - 5.5 0.00
9/3/26 - 0520 63.0 62.3 72 53.5 0.00 85.9 1,015.1 0.1 NNE | 16 1.2 N | 9 266 -14 0.0 0.0 - 5.5 0.00
9/3/26 - 0510 62.4 61.9 72 53.0 0.00 85.8 1,015.2 0.0 N | 0 0.0 SSE | 166 266 -14 0.0 0.0 - 5.5 0.00
9/3/26 - 0500 62.1 61.4 72 52.8 0.00 86.0 1,015.3 0.0 N | 0 0.0 SSE | 166 266 -19 0.0 0.0 - 5.5 0.00
9/3/26 - 0450 61.6 60.8 73 52.6 0.00 86.1 1,015.3 0.0 N | 0 0.0 SSE | 166 266 -15 0.0 0.0 - 5.5 0.00
9/3/26 - 0440 61.0 60.4 74 52.2 0.00 86.2 1,015.3 0.0 N | 0 0.0 SSE | 166 266 -11 0.0 0.0 - 5.5 0.00
9/3/26 - 0430 60.6 59.8 76 52.7 0.00 86.2 1,015.4 0.0 N | 0 0.0 SSE | 166 267 -10 0.0 0.0 - 5.5 0.00
9/3/26 - 0420 60.0 59.0 77 52.3 0.00 86.2 1,015.3 0.0 N | 0 0.0 SSE | 166 267 -26 0.0 0.0 - 5.5 0.00
9/3/26 - 0410 59.3 58.7 76 51.5 0.00 86.0 1,015.3 0.0 N | 0 0.0 SSE | 166 267 -40 0.0 0.0 - 5.5 0.00
9/3/26 - 0400 59.0 58.8 74 50.8 0.00 86.0 1,015.4 0.1 SSE | 166 0.9 SSE | 166 268 -51 0.0 0.0 - 5.5 0.00
9/3/26 - 0350 59.3 58.9 74 50.8 0.00 85.8 1,015.4 0.2 SSE | 164 0.8 SSE | 166 267 -53 0.0 0.0 - 5.5 0.00
9/3/26 - 0340 59.1 58.8 74 50.5 0.00 85.7 1,015.4 0.0 SE | 141 0.4 SE | 141 267 -54 0.0 0.0 - 5.5 0.00
9/3/26 - 0330 59.3 58.9 73 50.3 0.00 85.9 1,015.4 0.0 SE | 140 0.9 SE | 140 267 -54 0.0 0.0 - 5.5 0.00
9/3/26 - 0320 59.3 59.0 71 49.8 0.00 85.8 1,015.4 0.0 N | 0 0.0 SSW | 196 267 -54 0.0 0.0 - 5.5 0.00
9/3/26 - 0310 59.8 59.0 70 49.4 0.00 86.0 1,015.4 0.0 N | 0 0.0 SSW | 196 266 -55 0.0 0.0 - 5.5 0.00
9/3/26 - 0300 59.5 59.2 70 49.6 0.00 86.4 1,015.4 0.0 N | 0 0.0 SSW | 196 266 -54 0.0 0.0 - 5.5 0.00
9/3/26 - 0250 59.7 59.3 68 49.0 0.00 86.8 1,015.5 0.0 N | 0 0.0 SSW | 196 266 -55 0.0 0.0 - 5.5 0.00
9/3/26 - 0240 59.7 59.4 68 48.8 0.00 87.2 1,015.6 0.0 N | 0 0.0 SSW | 196 266 -55 0.0 0.0 - 5.5 0.00
9/3/26 - 0230 60.2 59.5 66 48.6 0.00 87.5 1,015.7 0.0 N | 0 0.0 SSW | 196 266 -55 0.0 0.0 - 5.5 0.00
9/3/26 - 0220 60.2 59.7 66 48.6 0.00 87.8 1,015.8 0.0 N | 0 0.0 SSW | 196 265 -56 0.0 0.0 - 5.5 0.00
9/3/26 - 0210 60.1 59.7 65 48.3 0.00 88.0 1,015.9 0.0 SE | 139 0.1 SE | 139 265 -56 0.0 0.0 - 5.5 0.00
9/3/26 - 0200 60.3 59.9 64 47.9 0.00 87.7 1,015.9 0.2 SSE | 147 0.9 SSE | 148 265 -57 0.0 0.0 - 5.5 0.00
9/3/26 - 0150 60.7 60.3 63 47.8 0.00 87.6 1,015.9 0.0 SSE | 150 0.7 SSE | 150 265 -57 0.0 0.0 - 5.5 0.00
9/3/26 - 0140 60.8 60.5 63 47.9 0.00 87.6 1,016.0 0.0 N | 0 0.0 SSE | 150 265 -57 0.0 0.0 - 5.5 0.00
9/3/26 - 0130 61.0 60.6 62 47.8 0.00 87.4 1,016.1 0.0 SSE | 150 0.2 SSE | 150 264 -57 0.0 0.0 - 5.5 0.00
9/3/26 - 0120 61.2 60.7 62 48.0 0.00 87.2 1,016.1 0.0 N | 0 0.0 SSE | 150 265 -58 0.0 0.0 - 5.5 0.00
9/3/26 - 0110 61.5 60.6 61 47.3 0.00 87.3 1,016.1 0.0 N | 0 0.0 SSE | 150 265 -58 0.0 0.0 - 5.5 0.00
9/3/26 - 0100 61.7 61.4 60 47.6 0.00 87.3 1,016.1 0.0 SSE | 160 0.6 SSE | 150 264 -59 0.0 16.1 - 5.5 0.00
9/3/26 - 0050 62.4 61.5 59 47.6 0.00 87.3 1,016.1 0.0 N | 0 0.0 S | 186 265 -59 0.0 16.1 - 5.5 0.00
9/3/26 - 0040 62.8 62.2 58 47.7 0.00 87.4 1,016.1 0.0 N | 0 0.0 S | 186 265 -59 0.0 16.1 - 5.5 0.00
9/3/26 - 0030 63.2 62.6 58 47.7 0.00 87.4 1,016.1 0.0 S | 186 0.8 S | 186 264 -60 0.0 16.1 - 5.5 0.00
9/3/26 - 0020 63.1 62.6 58 47.9 0.00 87.3 1,016.1 0.5 SSW | 195 1.1 SSW | 208 264 -61 0.0 16.1 - 5.5 0.00
9/3/26 - 0010 62.7 62.3 60 48.2 0.00 87.5 1,016.0 0.5 SSW | 197 1.6 SSW | 193 264 -61 0.0 16.1 - 5.5 0.00
9/3/26 - 0000 62.7 62.2 59 47.9 0.00 87.7 1,016.0 0.0 SSW | 194 0.3 SSW | 194 264 -62 0.0 16.1 - 5.5 0.00
9/2/26 - 2350 63.2 62.5 58 47.8 0.00 87.7 1,015.9 0.0 SE | 145 0.4 SE | 145 264 -62 0.0 16.1 - 5.5 0.00
9/2/26 - 2340 63.2 62.8 58 47.8 0.00 87.6 1,015.8 0.0 N | 0 0.0 SSE | 158 264 -61 0.0 16.1 - 5.5 0.00
9/2/26 - 2330 63.3 63.1 57 47.7 0.00 87.5 1,015.7 0.0 N | 0 0.0 SSE | 158 264 -62 0.0 16.1 - 5.5 0.00
9/2/26 - 2320 63.6 63.1 57 47.7 0.00 87.3 1,015.7 0.0 N | 0 0.0 SSW | 194 264 -63 0.0 16.1 - 5.5 0.00
9/2/26 - 2310 63.7 63.4 57 47.8 0.00 87.4 1,015.5 0.1 SSW | 201 0.7 SSW | 204 264 -63 0.0 16.1 - 5.5 0.00
9/2/26 - 2300 64.4 63.5 55 47.5 0.00 87.1 1,015.6 0.0 N | 0 0.0 SSW | 200 263 -64 0.0 16.1 - 5.5 0.00
9/2/26 - 2250 64.5 63.9 55 47.8 0.00 87.1 1,015.6 0.2 SSW | 201 1.4 SSW | 201 263 -64 0.0 16.1 - 5.5 0.00
9/2/26 - 2240 65.0 63.9 54 47.4 0.00 87.1 1,015.6 0.1 SSW | 195 1.3 SSW | 201 263 -66 0.0 16.1 - 5.5 0.00
9/2/26 - 2230 65.2 64.5 53 47.3 0.00 87.0 1,015.7 0.2 S | 189 1.3 SSW | 202 263 -67 0.0 16.1 - 5.5 0.00
9/2/26 - 2220 65.4 64.9 52 47.0 0.00 87.3 1,015.7 0.0 SSE | 160 0.5 SSE | 157 263 -67 0.0 16.1 - 5.5 0.00
9/2/26 - 2210 66.0 65.3 51 46.9 0.00 87.7 1,015.8 0.1 S | 183 1.6 S | 188 263 -69 0.0 16.1 - 5.5 0.00
9/2/26 - 2200 66.8 65.6 50 46.8 0.00 87.8 1,015.8 0.1 SSW | 196 1.2 SSW | 203 262 -70 0.0 16.1 - 5.5 0.00
9/2/26 - 2150 67.7 66.8 47 46.6 0.00 88.3 1,015.9 0.0 SE | 146 0.3 SE | 146 262 -72 0.0 16.1 - 5.5 0.00
9/2/26 - 2140 68.0 67.6 46 46.3 0.00 88.1 1,015.9 0.3 S | 175 1.6 S | 179 262 -73 0.0 16.1 - 5.5 0.00
9/2/26 - 2130 68.4 67.8 45 46.1 0.00 87.8 1,015.8 1.3 SSW | 194 1.9 S | 184 262 -73 0.0 16.1 - 5.5 0.00
9/2/26 - 2120 69.1 68.1 44 46.0 0.00 87.8 1,015.8 1.0 S | 188 2.2 SSW | 206 262 -75 0.0 16.1 - 5.5 0.00
9/2/26 - 2110 69.6 69.0 43 45.7 0.00 87.6 1,015.7 0.4 S | 190 2.3 S | 191 262 -78 0.0 16.1 - 5.5 0.00
9/2/26 - 2100 70.0 69.4 42 45.4 0.00 87.7 1,015.6 1.3 SW | 224 4.0 SW | 235 262 -80 0.1 16.1 - 5.5 0.00
9/2/26 - 2050 70.6 69.9 41 45.4 0.00 87.7 1,015.5 1.6 SW | 228 4.5 WSW | 244 262 -81 0.4 16.1 - 5.5 0.00
9/2/26 - 2040 70.7 70.3 40 45.2 0.00 87.8 1,015.5 2.1 WSW | 238 4.2 WSW | 238 261 -82 0.3 16.0 - 5.5 0.00
9/2/26 - 2030 71.3 70.6 40 45.3 0.00 87.7 1,015.4 2.2 SW | 235 4.2 WSW | 242 261 -83 0.5 16.0 - 5.5 0.00
9/2/26 - 2020 72.0 71.2 39 45.2 0.00 87.9 1,015.3 2.7 SW | 228 5.9 WSW | 255 261 -84 0.9 15.9 - 5.5 0.00
9/2/26 - 2010 72.4 71.8 38 44.9 0.00 87.6 1,015.2 2.7 WSW | 242 7.2 WSW | 258 261 -85 1.7 15.7 - 5.5 0.00
9/2/26 - 2000 73.0 72.4 35 43.7 0.00 87.6 1,015.2 2.8 WSW | 239 5.5 NW | 307 261 -86 1.5 15.4 - 5.5 0.00
9/2/26 - 1950 73.9 72.9 34 43.6 0.00 87.4 1,015.1 3.3 WSW | 237 5.0 WSW | 255 261 -88 1.7 15.2 - 5.5 0.00
9/2/26 - 1940 74.9 74.0 34 44.4 0.00 87.2 1,015.1 2.8 WSW | 257 5.6 WSW | 256 260 -88 1.7 14.9 - 5.5 0.00
9/2/26 - 1930 76.1 74.8 34 45.4 0.00 86.8 1,015.0 1.3 W | 281 5.3 WSW | 253 260 -89 1.2 14.6 - 5.5 0.00
9/2/26 - 1920 77.0 75.8 33 45.0 0.00 86.8 1,014.9 1.3 WNW | 282 5.3 W | 268 260 -88 1.3 14.4 - 5.5 0.00
9/2/26 - 1910 78.4 76.9 31 45.0 0.00 86.6 1,014.9 1.1 WNW | 289 4.2 W | 261 260 -86 1.1 14.2 - 5.5 0.00
9/2/26 - 1900 79.0 78.4 30 44.4 0.00 86.3 1,014.9 1.4 WNW | 290 4.9 NW | 312 260 -69 1.5 14.0 - 5.5 0.00
9/2/26 - 1850 80.2 78.9 28 43.8 0.00 86.4 1,014.9 2.4 W | 280 6.5 WSW | 250 260 -53 1.7 13.8 - 5.5 0.00
9/2/26 - 1840 80.5 80.0 27 43.3 0.00 86.4 1,014.8 0.7 NW | 308 4.2 WSW | 239 260 -41 0.8 13.5 - 5.5 0.00
9/2/26 - 1830 81.0 80.3 27 43.7 0.00 86.7 1,014.9 0.7 NNW | 332 3.6 WSW | 237 260 -23 0.9 13.3 - 5.6 0.00
9/2/26 - 1820 81.7 80.7 28 44.6 0.00 87.0 1,014.9 0.9 NNW | 336 8.4 NNW | 337 260 2 1.0 13.2 - 5.6 0.00
9/2/26 - 1810 82.9 81.6 27 45.5 0.00 86.9 1,014.9 0.6 NNW | 333 3.9 W | 274 260 27 0.8 13.0 - 5.6 0.00
9/2/26 - 1800 83.0 82.7 30 47.9 0.00 87.1 1,014.8 0.7 NNW | 334 2.7 NNW | 328 260 55 1.3 12.9 - 5.6 0.00
9/2/26 - 1750 83.2 82.2 30 48.2 0.00 86.8 1,014.7 0.9 NNW | 334 3.7 NW | 317 260 80 1.2 12.7 - 5.6 0.00
9/2/26 - 1740 83.3 82.5 31 48.8 0.00 87.4 1,014.8 0.7 NNW | 340 3.6 NNE | 22 259 106 0.9 12.5 - 5.6 0.00
9/2/26 - 1730 83.6 82.4 31 49.5 0.00 87.6 1,014.8 1.6 N | 3 4.5 NNW | 338 260 131 0.6 12.3 - 5.6 0.00
9/2/26 - 1720 84.7 83.3 31 50.1 0.00 87.6 1,014.8 1.6 NNW | 328 8.1 W | 266 260 157 1.6 12.2 - 5.6 0.00
9/2/26 - 1710 85.7 84.9 30 50.7 0.00 87.2 1,014.7 2.0 WNW | 296 9.4 WSW | 258 259 182 2.3 12.0 - 5.6 0.00
9/2/26 - 1700 85.7 84.6 23 42.6 0.00 87.0 1,014.7 1.6 SSW | 206 4.7 SSW | 211 259 204 1.1 11.6 - 5.6 0.00
9/2/26 - 1650 86.4 85.1 19 39.1 0.00 86.8 1,014.6 2.7 S | 185 5.0 S | 190 258 225 1.8 11.4 - 5.6 0.00
9/2/26 - 1640 86.1 84.5 20 39.4 0.00 86.6 1,014.6 2.2 SSE | 154 8.0 SSW | 209 258 250 1.5 11.1 - 5.6 0.00
9/2/26 - 1630 85.3 84.1 19 38.3 0.00 86.3 1,014.7 3.6 S | 183 7.6 SE | 139 259 271 2.0 10.8 - 5.6 0.00
9/2/26 - 1620 85.2 84.6 18 37.1 0.00 86.2 1,014.7 3.5 S | 181 7.4 S | 188 258 291 2.1 10.5 - 5.7 0.00
9/2/26 - 1610 85.5 84.1 18 37.1 0.00 86.2 1,014.7 2.7 ESE | 116 6.2 SW | 222 258 308 1.5 10.2 - 5.7 0.00
9/2/26 - 1600 85.6 84.6 18 37.0 0.00 85.9 1,014.9 3.9 SSW | 195 7.4 SW | 233 258 326 2.4 9.9 - 5.7 0.00
9/2/26 - 1550 85.3 84.0 19 37.9 0.00 85.7 1,014.9 3.6 S | 190 8.9 S | 189 258 347 2.6 9.5 - 5.7 0.00
9/2/26 - 1540 85.8 84.1 20 39.5 0.00 85.5 1,015.0 4.1 SSW | 208 7.7 SW | 230 258 364 2.7 9.1 - 5.7 0.00
9/2/26 - 1530 86.5 85.4 20 40.1 0.00 85.4 1,015.2 2.8 S | 173 5.7 SSW | 202 259 376 1.6 8.6 - 5.7 0.00
9/2/26 - 1520 85.5 84.6 20 40.0 0.00 85.4 1,015.3 2.7 SW | 222 10.0 SSW | 198 259 394 1.9 8.4 - 5.7 0.00
9/2/26 - 1510 85.9 84.7 20 40.1 0.00 85.4 1,015.4 3.3 S | 175 7.9 SSW | 211 259 410 1.9 8.0 - 5.7 0.00
9/2/26 - 1500 85.8 85.0 20 40.2 0.00 85.3 1,015.5 3.2 S | 178 7.1 S | 182 259 423 2.2 7.7 - 5.7 0.00
9/2/26 - 1450 85.6 84.7 20 40.0 0.00 85.1 1,015.6 2.1 SSE | 160 5.3 S | 170 258 437 1.4 7.3 - 5.7 0.00
9/2/26 - 1440 85.0 83.7 20 39.4 0.00 85.1 1,015.8 2.7 S | 178 6.5 SE | 146 258 451 1.8 7.1 - 5.7 0.00
9/2/26 - 1430 84.8 83.0 21 39.2 0.00 85.0 1,015.8 3.5 SSW | 200 7.8 SW | 229 258 464 2.4 6.8 - 5.7 0.00
9/2/26 - 1420 84.5 82.9 20 38.6 0.00 84.8 1,015.9 4.5 SSW | 201 8.8 SW | 215 258 473 2.8 6.4 - 5.7 0.00
9/2/26 - 1410 84.8 83.8 20 39.1 0.00 84.6 1,016.0 3.1 SSW | 207 7.1 WSW | 250 258 480 2.2 5.9 - 5.7 0.00
9/2/26 - 1400 84.7 83.2 21 40.0 0.00 84.5 1,016.1 3.2 S | 187 7.0 S | 179 258 492 2.1 5.6 - 5.7 0.00
9/2/26 - 1350 85.2 84.1 22 41.1 0.00 84.5 1,016.1 3.2 SSE | 163 6.1 SW | 222 258 497 2.2 5.2 - 5.7 0.00
9/2/26 - 1340 84.7 83.6 22 41.5 0.00 84.5 1,016.2 3.7 SSW | 195 8.9 S | 176 259 503 2.5 4.9 - 5.7 0.00
9/2/26 - 1330 84.5 83.1 23 42.6 0.00 84.1 1,016.3 3.0 SSE | 166 6.6 SE | 135 259 507 1.6 4.4 - 5.7 0.00
9/2/26 - 1320 83.3 82.4 25 43.2 0.00 84.2 1,016.4 3.6 SSW | 206 6.9 SSW | 195 259 511 2.6 4.2 - 5.7 0.00
9/2/26 - 1310 83.0 82.1 26 43.8 0.00 84.0 1,016.5 2.8 SSE | 168 8.6 SE | 137 259 510 1.7 3.7 - 5.7 0.00
9/2/26 - 1300 84.0 82.6 26 44.3 0.00 84.1 1,016.5 4.2 SSE | 157 8.7 SW | 228 259 511 2.3 3.4 - 5.7 0.00
9/2/26 - 1250 85.0 82.6 26 45.2 0.00 84.4 1,016.6 2.5 SSE | 166 7.0 WSW | 240 259 506 1.6 3.0 - 5.7 0.00
9/2/26 - 1240 85.2 83.6 30 49.5 0.00 84.7 1,016.8 1.8 ENE | 77 3.5 SSE | 153 259 505 1.1 2.8 - 5.7 0.00
9/2/26 - 1230 84.3 83.1 31 50.2 0.00 84.6 1,016.9 1.4 NE | 38 3.4 N | 349 260 497 0.6 2.6 - 5.7 0.00
9/2/26 - 1220 83.9 83.0 32 50.5 0.00 85.0 1,016.9 1.6 NE | 43 5.7 ENE | 58 260 497 1.1 2.5 - 5.7 0.00
9/2/26 - 1210 83.4 81.9 33 50.8 0.00 85.0 1,017.0 1.2 NE | 42 6.0 ESE | 116 260 493 0.9 2.3 - 5.7 0.00
9/2/26 - 1200 82.5 81.4 33 50.4 0.00 85.1 1,017.1 1.9 NNE | 32 3.7 N | 0 260 485 1.1 2.2 - 5.7 0.00
9/2/26 - 1150 82.2 80.7 34 50.5 0.00 85.1 1,017.2 1.5 NNE | 23 5.5 NNE | 21 260 484 0.7 2.0 - 5.7 0.00
9/2/26 - 1140 81.6 80.1 34 50.0 0.00 85.2 1,017.3 1.5 ENE | 78 5.6 NW | 310 260 478 1.0 1.9 - 5.7 0.00
9/2/26 - 1130 81.4 80.2 35 50.8 0.00 85.1 1,017.3 1.6 NE | 49 4.3 NE | 54 260 470 0.7 1.7 - 5.7 0.00
9/2/26 - 1120 81.2 79.4 37 51.7 0.00 85.1 1,017.3 0.7 N | 351 3.5 N | 7 260 463 1.0 1.6 - 5.7 0.00
9/2/26 - 1110 79.7 78.2 39 52.3 0.00 84.9 1,017.3 1.3 NE | 42 5.9 ESE | 114 260 456 0.6 1.4 - 5.7 0.00
9/2/26 - 1100 79.1 77.9 42 53.2 0.00 84.8 1,017.4 1.6 E | 80 5.0 E | 98 260 446 1.1 1.3 - 5.7 0.00
9/2/26 - 1050 78.1 76.2 45 54.5 0.00 84.8 1,017.4 0.7 NE | 46 3.5 N | 350 260 430 0.6 1.1 - 5.7 0.00
9/2/26 - 1040 77.0 75.6 47 54.7 0.00 84.9 1,017.5 1.4 NNE | 29 3.9 ENE | 73 260 416 0.5 1.0 - 5.7 0.00
9/2/26 - 1030 76.2 75.0 49 55.3 0.00 84.9 1,017.4 1.2 ENE | 66 4.5 ESE | 108 261 404 0.7 0.9 - 5.7 0.00
9/2/26 - 1020 75.4 74.4 50 55.2 0.00 84.8 1,017.5 1.4 NE | 51 3.6 SE | 137 261 389 0.6 0.8 - 5.7 0.00
9/2/26 - 1010 75.1 73.5 52 55.4 0.00 84.8 1,017.5 1.4 ENE | 59 4.0 NW | 324 261 372 0.4 0.7 - 5.7 0.00
9/2/26 - 1000 74.1 73.1 53 55.4 0.00 84.8 1,017.4 1.8 NE | 47 3.8 E | 87 262 354 0.6 0.6 - 5.7 0.00
9/2/26 - 0950 74.8 73.5 52 55.6 0.00 84.7 1,017.3 1.4 ENE | 62 4.2 E | 85 261 334 0.8 0.5 - 5.7 0.00
9/2/26 - 0940 73.5 72.6 54 55.6 0.00 84.7 1,017.3 0.9 NNE | 13 2.7 NNE | 33 262 314 0.5 0.4 - 5.7 0.00
9/2/26 - 0930 73.1 71.4 55 55.4 0.00 85.0 1,017.3 0.9 ENE | 69 2.8 E | 80 262 291 0.5 0.3 - 5.7 0.00
9/2/26 - 0920 71.5 69.7 58 55.0 0.00 84.9 1,017.4 0.6 NW | 307 2.3 NNE | 29 262 272 0.4 0.2 - 5.7 0.00
9/2/26 - 0910 70.5 69.4 59 54.7 0.00 85.1 1,017.4 1.2 NNE | 21 3.9 NNE | 19 262 250 0.3 0.2 8.3 5.7 0.00
9/2/26 - 0900 70.4 69.4 59 54.7 0.00 85.1 1,017.5 0.3 NNE | 26 2.3 NNE | 28 262 229 0.2 0.1 57.3 5.7 0.00
9/2/26 - 0850 69.8 69.2 59 54.6 0.00 85.2 1,017.5 0.8 NNE | 28 2.3 NE | 39 262 210 0.1 0.1 - 5.7 0.00
9/2/26 - 0840 70.4 69.7 58 54.7 0.00 85.3 1,017.4 0.3 NE | 39 2.2 NNE | 27 262 189 0.0 0.1 - 5.7 0.00
9/2/26 - 0830 70.1 68.8 60 54.9 0.00 85.4 1,017.4 0.4 NE | 39 2.4 E | 98 263 164 0.1 0.1 - 5.7 0.00
9/2/26 - 0820 69.9 68.8 60 55.0 0.00 85.5 1,017.4 0.3 ESE | 114 1.2 SE | 143 265 140 0.2 0.0 - 5.7 0.00
9/2/26 - 0810 69.7 67.8 61 54.9 0.00 85.4 1,017.4 0.1 N | 6 1.1 NNE | 18 269 151 0.0 0.0 - 5.7 0.00
9/2/26 - 0800 67.9 66.5 65 54.8 0.00 85.3 1,017.4 0.0 N | 0 0.0 N | 4 259 138 0.0 0.0 - 5.7 0.00
9/2/26 - 0750 66.7 64.8 67 54.9 0.00 85.3 1,017.4 0.1 NNE | 22 1.2 NNE | 15 247 110 0.0 0.0 - 5.7 0.00
9/2/26 - 0740 64.7 61.0 78 55.6 0.00 85.3 1,017.4 0.0 N | 0 0.0 SE | 139 251 5 0.0 0.0 - 5.7 0.00
9/2/26 - 0730 61.0 59.0 83 54.8 0.00 85.3 1,017.3 0.4 SE | 140 1.2 SE | 137 262 34 0.0 0.0 - 5.7 0.00
9/2/26 - 0720 59.0 57.4 87 54.4 0.00 85.2 1,017.2 0.5 SE | 138 1.3 SE | 139 269 9 0.0 0.0 - 5.7 0.00
9/2/26 - 0710 57.5 56.0 89 53.4 0.00 85.3 1,017.1 0.8 SSE | 152 2.6 SE | 138 271 -4 0.0 0.0 - 5.7 0.00
9/2/26 - 0700 56.4 55.9 89 52.8 0.00 85.4 1,017.0 0.0 N | 0 0.0 SSW | 199 270 -8 0.0 0.0 - 5.7 0.00
9/2/26 - 0650 56.2 55.5 89 52.7 0.00 85.8 1,016.9 0.0 SSW | 200 0.7 SSW | 200 265 -13 0.0 0.0 - 5.7 0.00
9/2/26 - 0640 55.9 55.5 88 52.3 0.00 86.1 1,016.9 0.0 SSE | 165 0.3 S | 178 260 -19 0.0 0.0 - 5.7 0.00
9/2/26 - 0630 56.5 55.9 88 52.8 0.00 86.4 1,017.0 0.0 N | 0 0.0 SSE | 153 254 -22 0.0 0.0 - 5.7 0.00
9/2/26 - 0620 56.6 56.0 88 52.8 0.00 86.8 1,016.9 0.0 N | 0 0.0 SSE | 153 248 -25 0.0 0.0 - 5.7 0.00
9/2/26 - 0610 56.5 56.1 87 52.7 0.00 87.1 1,016.9 0.0 SSE | 153 0.5 SSE | 153 243 -26 0.0 0.0 - 5.7 0.00
9/2/26 - 0600 56.8 56.5 87 52.9 0.00 87.1 1,016.9 0.0 N | 0 0.0 SW | 226 240 -27 0.0 0.0 - 5.7 0.00
9/2/26 - 0550 56.8 56.5 87 52.8 0.00 87.2 1,016.9 0.0 N | 0 0.0 SW | 226 238 -28 0.0 0.0 - 5.7 0.00
9/2/26 - 0540 56.8 56.4 86 52.5 0.00 87.1 1,016.9 0.0 SW | 226 0.6 SW | 226 236 -29 0.0 0.0 - 5.7 0.00
9/2/26 - 0530 57.1 56.5 85 52.3 0.00 87.1 1,016.9 0.0 N | 0 0.0 SSE | 162 235 -31 0.0 0.0 - 5.7 0.00
9/2/26 - 0520 57.4 56.9 84 52.5 0.00 87.0 1,016.9 0.0 N | 0 0.0 SSE | 163 235 -33 0.0 0.0 - 5.7 0.00
9/2/26 - 0510 57.6 57.2 84 52.6 0.00 87.0 1,016.9 0.0 N | 0 0.0 SSE | 160 244 -35 0.0 0.0 - 5.7 0.00
9/2/26 - 0500 57.8 57.4 83 52.5 0.00 87.0 1,017.0 0.0 SSE | 168 0.8 S | 178 262 -38 0.0 0.0 - 5.7 0.00
9/2/26 - 0450 58.1 57.5 84 52.8 0.00 87.0 1,017.1 0.0 SSE | 163 0.4 SSE | 168 264 -39 0.0 0.0 - 5.7 0.00
9/2/26 - 0440 57.6 57.2 84 52.6 0.00 86.9 1,017.1 0.0 N | 0 0.0 S | 181 266 -38 0.0 0.0 - 5.7 0.00
9/2/26 - 0430 57.4 57.1 84 52.5 0.00 86.9 1,017.0 0.0 SSE | 164 0.5 SSE | 157 267 -32 0.0 0.0 - 5.7 0.00
9/2/26 - 0420 57.6 57.0 85 52.8 0.00 87.0 1,016.9 0.0 N | 0 0.0 ESE | 107 266 -33 0.0 0.0 - 5.7 0.00
9/2/26 - 0410 57.3 56.9 83 52.1 0.00 87.1 1,017.0 0.0 N | 0 0.0 ESE | 107 267 -41 0.0 0.0 - 5.7 0.00
9/2/26 - 0400 57.3 57.0 82 51.8 0.00 87.1 1,017.0 0.0 N | 0 0.0 ESE | 107 269 -47 0.0 0.0 - 5.7 0.00
9/2/26 - 0350 57.5 57.1 82 51.8 0.00 87.3 1,017.0 0.0 N | 0 0.0 ESE | 107 271 -52 0.0 0.0 - 5.7 0.00
9/2/26 - 0340 57.3 56.6 79 50.6 0.00 87.3 1,017.0 0.0 N | 0 0.0 ESE | 107 271 -52 0.0 0.0 - 5.7 0.00
9/2/26 - 0330 56.7 56.3 79 50.0 0.00 87.3 1,017.0 0.0 N | 0 0.0 ESE | 107 270 -44 0.0 0.0 - 5.7 0.00
9/2/26 - 0320 56.5 56.0 78 49.7 0.00 87.3 1,017.1 0.0 N | 0 0.0 ESE | 107 271 -48 0.0 0.0 - 5.7 0.00
9/2/26 - 0310 56.6 56.4 78 49.6 0.00 87.3 1,017.0 0.0 N | 0 0.0 ESE | 107 271 -59 0.0 0.0 - 5.7 0.00
9/2/26 - 0300 57.2 56.5 77 49.6 0.00 87.3 1,016.9 0.0 N | 0 0.0 S | 172 271 -61 0.0 0.0 - 5.7 0.00
9/2/26 - 0250 57.2 56.9 77 50.0 0.00 87.1 1,016.9 0.0 SSE | 163 0.3 SSE | 162 271 -60 0.0 0.0 - 5.7 0.00
9/2/26 - 0240 57.3 56.9 76 49.7 0.00 87.0 1,016.9 0.0 SSE | 164 0.2 SSE | 164 271 -62 0.0 0.0 - 5.7 0.00
9/2/26 - 0230 57.5 57.2 76 49.8 0.00 87.0 1,017.0 0.0 N | 0 0.0 SSE | 165 270 -62 0.0 0.0 - 5.7 0.00
9/2/26 - 0220 57.6 57.2 76 49.8 0.00 87.2 1,017.0 0.0 SSE | 159 0.5 SSE | 164 270 -63 0.0 0.0 - 5.7 0.00
9/2/26 - 0210 57.7 57.3 75 49.6 0.00 87.6 1,017.0 0.1 SE | 146 0.8 SE | 144 269 -64 0.0 0.0 - 5.7 0.00
9/2/26 - 0200 58.0 57.5 74 49.7 0.00 87.9 1,017.0 0.0 SSE | 150 0.4 SSE | 150 269 -64 0.0 0.0 - 5.7 0.00
9/2/26 - 0150 58.1 57.7 74 49.8 0.00 88.3 1,017.0 0.0 N | 0 0.0 SSE | 150 270 -64 0.0 0.0 - 5.7 0.00
9/2/26 - 0140 58.2 57.8 75 50.2 0.00 88.7 1,017.0 0.0 N | 0 0.0 SSE | 150 269 -65 0.0 0.0 - 5.7 0.00
9/2/26 - 0130 58.6 58.0 76 50.9 0.00 88.9 1,017.0 0.0 N | 0 0.0 S | 176 269 -65 0.0 0.0 - 5.7 0.00
9/2/26 - 0120 58.7 58.1 75 50.7 0.00 89.0 1,016.9 0.0 N | 0 0.0 S | 176 270 -67 0.0 0.0 - 5.7 0.00
9/2/26 - 0110 59.3 58.7 74 50.7 0.00 89.0 1,016.9 0.0 N | 0 0.0 S | 176 268 -67 0.0 0.0 - 5.7 0.00
9/2/26 - 0100 59.2 58.9 74 50.8 0.00 88.9 1,016.9 0.0 N | 0 0.0 S | 176 268 -67 0.0 18.9 - 5.7 0.00
9/2/26 - 0050 59.2 58.9 74 50.8 0.00 88.7 1,016.8 0.0 N | 0 0.0 SSW | 211 268 -67 0.0 18.9 - 5.7 0.00
9/2/26 - 0040 59.8 58.9 72 50.6 0.00 88.1 1,016.8 0.1 SSW | 212 0.7 SSW | 211 267 -68 0.0 18.9 - 5.7 0.00
9/2/26 - 0030 60.2 59.8 72 50.9 0.00 88.0 1,016.7 0.0 N | 0 0.0 SSW | 201 267 -69 0.0 18.9 - 5.8 0.00
9/2/26 - 0020 60.5 59.9 71 50.9 0.00 87.8 1,016.6 0.0 N | 0 0.0 SSW | 202 267 -70 0.0 18.9 - 5.8 0.00
9/2/26 - 0010 60.7 60.3 71 51.2 0.00 87.9 1,016.6 0.2 SSW | 202 1.0 SSW | 202 267 -69 0.0 18.9 - 5.8 0.00
9/2/26 - 0000 60.9 60.5 71 51.3 0.00 87.7 1,016.5 0.0 N | 0 0.0 SSW | 202 267 -70 0.0 18.9 - 5.8 0.00
9/1/26 - 2350 61.4 60.8 70 51.0 0.00 87.7 1,016.4 0.0 N | 0 0.0 SSE | 158 266 -70 0.0 18.9 - 5.8 0.00
9/1/26 - 2340 61.4 60.7 69 50.6 0.00 88.6 1,016.3 0.5 SSW | 213 1.3 SW | 235 266 -71 0.0 18.9 - 5.8 0.00
9/1/26 - 2330 62.0 61.4 68 51.1 0.00 88.5 1,016.3 0.0 SW | 234 0.4 SW | 234 265 -72 0.0 18.9 - 5.8 0.00
9/1/26 - 2320 62.3 61.8 67 51.0 0.00 88.5 1,016.2 0.0 N | 0 0.0 SW | 234 265 -72 0.0 18.9 - 5.8 0.00
9/1/26 - 2310 62.5 62.1 67 51.1 0.00 87.9 1,016.1 0.0 N | 0 0.0 SW | 234 266 -72 0.0 18.9 - 5.8 0.00
9/1/26 - 2300 63.7 62.3 64 50.9 0.00 88.1 1,016.1 0.3 SW | 228 1.5 SW | 228 264 -72 0.0 18.9 - 5.8 0.00
9/1/26 - 2250 64.7 63.6 62 50.8 0.00 87.9 1,016.1 0.0 N | 0 0.0 SSE | 167 264 -75 0.0 18.9 - 5.8 0.00
9/1/26 - 2240 65.3 64.6 61 51.0 0.00 87.9 1,016.1 0.1 WSW | 243 1.7 SW | 231 264 -76 0.0 18.9 - 5.8 0.00
9/1/26 - 2230 66.1 65.2 59 51.1 0.00 88.2 1,016.2 0.4 SW | 227 2.5 SSW | 209 264 -77 0.0 18.9 - 5.8 0.00
9/1/26 - 2220 66.5 66.1 58 51.0 0.00 88.4 1,016.2 0.5 SW | 233 2.9 WSW | 252 264 -78 0.1 18.9 - 5.8 0.00
9/1/26 - 2210 67.0 66.5 57 51.2 0.00 88.8 1,016.1 1.2 SSW | 209 3.4 SW | 228 263 -79 0.2 18.9 - 5.8 0.00
9/1/26 - 2200 67.6 66.8 56 51.0 0.00 88.0 1,016.0 2.1 SW | 214 3.7 SW | 222 263 -80 0.7 18.9 - 5.8 0.00
9/1/26 - 2150 67.6 67.2 55 50.8 0.00 89.4 1,016.0 1.5 SW | 225 3.3 SW | 227 263 -80 0.3 18.8 - 5.8 0.00
9/1/26 - 2140 68.0 67.6 54 50.5 0.00 89.6 1,015.9 1.4 SW | 230 3.9 SSW | 213 262 -80 0.3 18.7 - 5.8 0.00
9/1/26 - 2130 68.5 68.0 53 50.4 0.00 89.8 1,015.8 1.3 SSW | 211 3.2 SSW | 194 262 -81 0.1 18.7 - 5.8 0.00
9/1/26 - 2120 68.9 68.5 51 50.1 0.00 89.9 1,015.7 1.5 SW | 223 3.4 SW | 225 262 -81 0.5 18.6 - 5.8 0.00
9/1/26 - 2110 68.7 68.2 49 48.7 0.00 89.1 1,015.6 1.9 SSW | 213 4.8 SW | 224 262 -80 0.6 18.6 - 5.8 0.00
9/1/26 - 2100 69.2 68.7 44 46.0 0.00 88.9 1,015.5 0.8 S | 182 2.0 SSE | 156 261 -80 0.1 18.5 - 5.8 0.00
9/1/26 - 2050 69.7 69.0 41 44.8 0.00 88.8 1,015.3 1.0 S | 183 2.2 S | 187 261 -81 0.0 18.4 - 5.8 0.00
9/1/26 - 2040 70.1 69.6 39 44.0 0.00 88.8 1,015.2 0.8 S | 182 2.1 SSW | 192 261 -82 0.1 18.4 - 5.8 0.00
9/1/26 - 2030 70.8 70.1 36 42.4 0.00 88.9 1,015.0 1.0 S | 180 2.5 S | 179 260 -84 0.0 18.4 - 5.8 0.00
9/1/26 - 2020 71.5 70.7 34 41.0 0.00 88.9 1,015.0 1.0 S | 189 2.8 S | 173 260 -85 0.0 18.4 - 5.8 0.00
9/1/26 - 2010 72.0 71.4 31 39.3 0.00 88.9 1,015.0 1.1 S | 178 2.5 SSW | 193 260 -87 0.2 18.4 - 5.8 0.00
9/1/26 - 2000 72.9 71.9 29 38.1 0.00 88.8 1,014.9 1.2 SSE | 164 3.0 S | 182 260 -89 0.1 18.4 - 5.8 0.00
9/1/26 - 1950 73.4 72.8 27 37.2 0.00 88.7 1,014.8 1.6 S | 189 2.8 SSE | 161 260 -90 0.2 18.4 - 5.8 0.00
9/1/26 - 1940 74.2 73.4 25 35.7 0.00 88.4 1,014.6 1.4 SSW | 212 3.1 SW | 220 259 -95 0.3 18.3 - 5.8 0.00
9/1/26 - 1930 75.5 74.0 22 33.5 0.00 88.3 1,014.5 1.0 S | 169 4.0 SSW | 213 259 -96 0.2 18.3 - 5.8 0.00
9/1/26 - 1920 77.5 75.4 19 31.5 0.00 87.9 1,014.4 0.2 SW | 216 1.3 WSW | 258 259 -95 0.1 18.2 - 5.8 0.00
9/1/26 - 1910 78.6 77.5 17 29.9 0.00 88.0 1,014.4 0.6 S | 179 2.0 SE | 136 258 -95 0.2 18.2 - 5.9 0.00
9/1/26 - 1900 79.0 78.6 16 28.2 0.00 88.0 1,014.3 1.2 SSE | 168 4.9 S | 187 258 -71 0.4 18.2 - 5.9 0.00
9/1/26 - 1850 79.5 78.9 16 29.9 0.00 87.9 1,014.3 2.6 S | 186 4.9 SSW | 208 258 -55 1.6 18.1 - 5.9 0.00
9/1/26 - 1840 80.6 79.4 17 31.0 0.00 87.5 1,014.3 3.1 SSW | 194 6.3 SW | 223 258 -47 2.0 17.9 - 5.9 0.00
9/1/26 - 1830 81.1 80.4 17 32.2 0.00 87.5 1,014.3 2.2 S | 176 4.6 SSE | 161 258 -30 1.4 17.5 - 5.9 0.00
9/1/26 - 1820 81.6 80.8 18 33.4 0.00 87.4 1,014.3 3.5 S | 175 6.6 SSW | 206 258 -4 2.1 17.3 - 5.9 0.00
9/1/26 - 1810 82.4 81.5 18 34.3 0.00 87.1 1,014.3 3.8 SSE | 165 6.7 SSE | 163 258 27 2.0 17.0 - 5.9 0.00
9/1/26 - 1800 82.6 82.2 15 31.0 0.00 87.2 1,014.4 3.0 S | 178 6.4 SSW | 210 258 57 2.1 16.6 - 5.9 0.00
9/1/26 - 1750 83.0 82.4 16 31.2 0.00 87.1 1,014.4 3.6 SSW | 192 7.5 SSW | 205 258 88 2.6 16.3 - 5.9 0.00
9/1/26 - 1740 83.0 82.5 17 33.2 0.00 87.6 1,014.5 3.7 S | 178 7.1 S | 178 258 118 2.3 15.8 - 5.9 0.00
9/1/26 - 1730 84.3 82.7 17 33.4 0.00 87.5 1,014.5 4.0 S | 184 7.1 S | 182 258 146 2.6 15.4 - 5.9 0.00
9/1/26 - 1720 85.3 84.3 15 32.2 0.00 87.7 1,014.5 3.6 S | 190 6.8 WSW | 248 258 171 2.5 15.0 - 5.9 0.00
9/1/26 - 1710 85.0 84.3 14 30.3 0.00 88.1 1,014.4 3.6 S | 178 7.8 S | 188 258 195 2.3 14.6 - 5.9 0.00
9/1/26 - 1700 85.7 84.4 13 29.0 0.00 88.2 1,014.4 4.2 S | 175 8.0 S | 184 258 217 2.7 14.2 - 5.9 0.00
9/1/26 - 1650 85.3 84.7 13 28.2 0.00 88.4 1,014.5 3.5 S | 173 6.6 SSW | 199 258 238 2.4 13.8 - 5.9 0.00
9/1/26 - 1640 85.8 84.8 14 30.4 0.00 88.3 1,014.5 4.2 SSE | 157 7.1 SSE | 150 258 259 2.2 13.4 - 5.9 0.00
9/1/26 - 1630 86.3 85.0 15 33.5 0.00 88.3 1,014.5 3.7 S | 187 7.6 SSE | 151 258 278 2.4 13.0 - 5.9 0.00
9/1/26 - 1620 86.3 85.4 16 35.0 0.00 87.8 1,014.5 3.5 S | 173 8.1 S | 174 258 298 2.2 12.6 - 5.9 0.00
9/1/26 - 1610 86.4 85.5 15 33.1 0.00 87.4 1,014.6 4.1 S | 183 7.6 SSW | 200 258 316 2.6 12.2 - 6.0 0.00
9/1/26 - 1600 86.6 85.8 14 31.4 0.00 87.3 1,014.7 3.9 S | 169 8.6 ESE | 117 258 334 2.1 11.8 - 6.0 0.00
9/1/26 - 1550 85.8 85.2 14 30.2 0.00 87.1 1,014.8 4.4 SSE | 150 7.5 SSW | 192 258 354 2.1 11.4 - 6.0 0.00
9/1/26 - 1540 85.9 85.3 12 27.1 0.00 86.9 1,014.8 3.7 SSE | 166 9.3 SW | 221 258 370 2.4 11.1 - 6.0 0.00
9/1/26 - 1530 86.4 85.5 12 27.8 0.00 86.8 1,014.9 4.0 SSE | 164 8.6 S | 173 258 386 2.5 10.7 - 6.1 0.00
9/1/26 - 1520 86.4 85.5 13 29.0 0.00 86.8 1,014.9 4.7 SSE | 158 8.4 SE | 138 258 403 2.4 10.3 - 6.1 0.00
9/1/26 - 1510 86.7 85.4 14 30.6 0.00 86.7 1,015.0 4.6 SE | 134 10.6 SE | 133 258 417 2.0 9.9 - 6.1 0.00
9/1/26 - 1500 87.1 85.8 14 31.8 0.00 86.6 1,015.1 3.7 SE | 140 9.9 SE | 143 258 429 2.1 9.5 - 6.1 0.00
9/1/26 - 1450 86.7 85.9 13 30.4 0.00 86.5 1,015.2 3.3 SSE | 159 8.6 SW | 217 258 443 1.6 9.2 - 6.1 0.00
9/1/26 - 1440 86.6 85.3 14 31.2 0.00 86.3 1,015.3 4.1 SSE | 164 8.9 ESE | 105 258 457 2.7 8.9 - 6.1 0.00
9/1/26 - 1430 85.8 84.8 14 30.1 0.00 86.3 1,015.5 3.6 SSE | 163 7.1 S | 187 258 467 2.4 8.5 - 6.1 0.00
9/1/26 - 1420 86.1 85.2 12 27.7 0.00 86.2 1,015.5 4.3 S | 171 8.2 SW | 234 257 476 2.4 8.1 - 6.1 0.00
9/1/26 - 1410 86.4 85.6 12 27.5 0.00 86.2 1,015.6 3.7 S | 174 6.8 SW | 222 258 485 2.3 7.7 - 6.1 0.00
9/1/26 - 1400 86.4 85.1 12 27.7 0.00 86.0 1,015.7 4.5 SSW | 192 7.5 S | 176 258 494 2.8 7.3 - 6.1 0.00
9/1/26 - 1350 85.6 84.5 12 26.3 0.00 86.1 1,015.8 3.7 SSE | 156 8.2 SW | 232 258 500 2.0 6.8 - 6.1 0.00
9/1/26 - 1340 85.0 84.3 12 26.4 0.00 86.0 1,015.8 3.8 S | 179 6.7 S | 170 258 506 2.2 6.5 - 6.1 0.00
9/1/26 - 1330 86.0 84.2 15 31.8 0.00 86.2 1,015.9 4.6 SSW | 212 10.9 W | 259 258 507 3.0 6.1 - 6.1 0.00
9/1/26 - 1320 85.6 84.4 14 29.8 0.00 85.9 1,016.1 4.1 S | 188 8.4 SW | 222 258 515 2.9 5.6 - 6.1 0.00
9/1/26 - 1310 85.1 84.5 14 30.2 0.00 85.8 1,016.1 4.2 S | 172 8.1 SE | 134 258 516 2.3 5.2 - 6.1 0.00
9/1/26 - 1300 85.8 84.5 17 35.8 0.00 85.6 1,016.2 4.4 S | 184 8.4 SSW | 208 258 519 2.8 4.8 - 6.1 0.00
9/1/26 - 1250 84.7 83.9 19 37.8 0.00 85.3 1,016.2 4.8 SSW | 202 8.4 SW | 225 258 517 3.2 4.3 - 6.1 0.00
9/1/26 - 1240 86.1 84.0 21 40.6 0.00 85.3 1,016.3 4.0 S | 189 7.9 SSW | 197 259 510 2.5 3.8 - 6.1 0.00
9/1/26 - 1230 86.2 84.4 17 36.0 0.00 85.1 1,016.4 2.6 SE | 126 6.2 ESE | 105 259 503 1.7 3.4 - 6.1 0.00
9/1/26 - 1220 86.1 84.0 22 41.0 0.00 84.8 1,016.4 3.1 ESE | 106 8.5 SE | 145 259 499 1.7 3.1 - 6.1 0.00
9/1/26 - 1210 85.2 84.5 33 52.4 0.00 85.1 1,016.3 1.5 ESE | 103 4.6 SE | 137 260 495 1.1 2.8 - 6.1 0.00
9/1/26 - 1200 85.1 82.9 37 54.7 0.00 85.0 1,016.4 1.4 NE | 44 3.2 E | 93 260 493 0.8 2.6 - 6.1 0.00
9/1/26 - 1150 83.2 81.7 38 54.6 0.00 85.0 1,016.5 1.6 ENE | 76 3.4 NE | 44 260 487 1.0 2.5 - 6.1 0.00
9/1/26 - 1140 82.4 80.3 41 55.4 0.00 85.1 1,016.6 1.9 ENE | 57 5.0 ENE | 72 260 484 1.2 2.3 - 6.1 0.00
9/1/26 - 1130 80.8 79.6 42 55.3 0.00 85.2 1,016.7 2.7 E | 81 7.7 NE | 50 260 480 1.2 2.1 - 6.1 0.00
9/1/26 - 1120 80.4 79.0 44 56.1 0.00 85.4 1,016.7 2.3 ESE | 108 6.0 SE | 133 261 467 1.5 1.9 - 6.1 0.00
9/1/26 - 1110 79.9 78.2 46 56.7 0.00 85.6 1,016.8 1.4 E | 83 5.1 E | 79 261 456 0.6 1.7 - 6.1 0.00
9/1/26 - 1100 79.0 77.2 48 56.8 0.00 86.0 1,016.8 1.9 E | 98 6.4 SE | 140 261 447 1.0 1.6 - 6.1 0.00
9/1/26 - 1050 78.4 76.7 48 56.4 0.00 86.3 1,016.9 1.7 E | 80 4.8 E | 83 261 434 1.1 1.4 - 6.1 0.00
9/1/26 - 1040 77.6 76.0 49 56.4 0.00 86.1 1,016.9 1.5 E | 85 4.0 SSE | 152 261 419 0.9 1.2 - 6.1 0.00
9/1/26 - 1030 76.5 75.4 51 56.3 0.00 86.0 1,016.9 1.6 SE | 144 5.0 SSE | 159 261 407 1.0 1.1 - 6.1 0.00
9/1/26 - 1020 75.8 74.6 52 56.3 0.00 87.0 1,016.9 1.3 WSW | 246 4.3 WSW | 248 261 393 1.0 0.9 - 6.1 0.00
9/1/26 - 1010 75.4 74.1 53 56.4 0.00 87.2 1,017.0 0.6 NNW | 332 4.7 NNE | 30 261 377 0.5 0.8 - 6.1 0.00
9/1/26 - 1000 75.0 73.0 56 57.0 0.00 87.5 1,017.0 0.8 NE | 34 2.9 NE | 43 262 356 0.2 0.7 - 6.1 0.00
9/1/26 - 0950 73.2 72.4 58 57.0 0.00 87.5 1,016.9 1.2 ENE | 69 4.7 N | 11 262 336 0.5 0.6 - 6.1 0.00
9/1/26 - 0940 72.5 71.1 59 56.9 0.00 87.3 1,016.8 1.1 SSE | 147 3.6 E | 98 262 315 0.6 0.6 - 6.1 0.00
9/1/26 - 0930 72.4 71.1 60 56.9 0.00 87.2 1,016.8 1.3 SE | 132 4.0 SSE | 154 262 294 0.7 0.5 - 6.1 0.00
9/1/26 - 0920 71.3 70.2 62 57.0 0.00 87.1 1,016.8 0.8 NE | 50 3.1 N | 352 262 272 0.5 0.4 - 6.1 0.00
9/1/26 - 0910 70.7 69.6 63 57.0 0.00 87.0 1,016.8 1.0 NE | 49 3.7 E | 91 262 247 0.3 0.3 12.5 6.1 0.00
9/1/26 - 0900 70.7 69.4 63 56.9 0.00 87.0 1,016.9 1.3 NE | 44 3.9 N | 4 263 224 0.3 0.2 49.1 6.1 0.00
9/1/26 - 0850 69.8 68.6 65 56.8 0.00 87.0 1,017.0 0.8 WSW | 250 2.5 WSW | 256 263 206 0.5 0.2 - 6.1 0.00
9/1/26 - 0840 70.6 69.0 63 56.8 0.00 86.9 1,017.0 0.6 NE | 51 2.8 N | 10 264 218 0.4 0.1 - 6.1 0.00
9/1/26 - 0830 70.6 68.6 65 57.1 0.00 87.1 1,016.9 0.0 NNW | 345 0.9 N | 0 264 219 0.0 0.0 - 6.1 0.00
9/1/26 - 0820 68.8 67.8 67 57.1 0.00 87.1 1,016.7 0.4 NE | 36 1.4 NNE | 18 271 200 0.0 0.0 - 6.1 0.00
9/1/26 - 0810 67.9 66.5 71 57.4 0.00 87.2 1,016.7 0.0 NW | 305 1.0 N | 3 274 177 0.0 0.0 - 6.1 0.00
9/1/26 - 0800 66.6 64.3 78 58.9 0.00 87.1 1,016.5 0.0 E | 94 0.3 E | 97 280 146 0.0 0.0 - 6.1 0.00
9/1/26 - 0750 64.4 61.8 87 59.2 0.00 86.9 1,016.5 0.0 SW | 236 0.7 SW | 233 291 90 0.0 0.0 - 6.1 0.00
9/1/26 - 0740 61.8 60.2 90 57.9 0.00 87.0 1,016.4 0.0 N | 0 0.0 ESE | 123 299 19 0.0 0.0 - 6.1 0.00
9/1/26 - 0730 60.3 58.8 90 56.7 0.00 86.9 1,016.2 0.0 N | 0 0.0 SE | 140 303 12 0.0 0.0 - 6.1 0.00
9/1/26 - 0720 58.9 58.0 90 55.6 0.00 86.9 1,016.0 0.0 N | 0 0.0 SE | 140 303 9 0.0 0.0 - 6.1 0.00
9/1/26 - 0710 58.1 57.4 90 54.9 0.00 86.8 1,015.9 0.0 N | 0 0.0 SE | 140 302 1 0.0 0.0 - 6.1 0.00
9/1/26 - 0700 57.6 57.0 90 54.3 0.00 86.9 1,015.8 0.0 N | 0 0.0 SE | 140 310 -4 0.0 0.0 - 6.1 0.00
9/1/26 - 0650 57.4 56.9 90 54.1 0.00 87.0 1,015.7 0.0 N | 0 0.0 SE | 140 306 -9 0.0 0.0 - 6.1 0.00
9/1/26 - 0640 57.3 56.9 89 54.1 0.00 87.2 1,015.7 0.0 N | 0 0.0 SE | 140 300 -14 0.0 0.0 - 6.1 0.00
9/1/26 - 0630 57.5 57.0 89 54.0 0.00 87.6 1,015.8 0.0 N | 0 0.0 SE | 140 295 -18 0.0 0.0 - 6.1 0.00
9/1/26 - 0620 57.0 56.3 89 53.4 0.00 88.1 1,015.8 0.0 N | 0 0.0 SE | 140 288 -20 0.0 0.0 - 6.1 0.00
9/1/26 - 0610 56.7 56.2 88 52.9 0.00 88.5 1,015.7 0.0 SE | 142 0.5 SE | 142 281 -21 0.0 0.0 - 6.1 0.00
9/1/26 - 0600 56.9 56.5 88 53.2 0.00 88.7 1,015.8 0.5 SSE | 147 1.6 SE | 143 296 -21 0.0 0.0 - 6.1 0.00
9/1/26 - 0550 57.4 56.8 88 53.5 0.00 88.9 1,015.8 0.0 SE | 146 0.6 SSE | 147 292 -21 0.0 0.0 - 6.1 0.00
9/1/26 - 0540 57.4 56.9 88 53.5 0.00 89.1 1,015.8 0.0 N | 0 0.0 SSE | 160 286 -22 0.0 0.0 - 6.1 0.00
9/1/26 - 0530 57.2 56.8 87 53.0 0.00 89.1 1,015.7 0.0 N | 0 0.0 SSE | 160 281 -22 0.0 0.0 - 6.1 0.00
9/1/26 - 0520 57.2 56.8 86 53.0 0.00 89.0 1,015.6 0.1 SSE | 148 0.5 SE | 143 276 -23 0.0 0.0 - 6.1 0.00
9/1/26 - 0510 57.3 57.0 87 53.3 0.00 88.9 1,015.6 0.1 S | 180 0.8 S | 187 270 -23 0.0 0.0 - 6.1 0.00
9/1/26 - 0500 57.2 56.7 87 53.2 0.00 88.8 1,015.6 0.2 S | 182 0.9 S | 187 267 -24 0.0 0.0 - 6.1 0.00
9/1/26 - 0450 57.1 56.5 87 52.9 0.00 88.7 1,015.6 0.5 SE | 144 1.6 SE | 138 262 -24 0.0 0.0 - 6.1 0.00
9/1/26 - 0440 57.2 56.7 87 53.1 0.00 88.6 1,015.6 0.1 S | 174 0.9 S | 174 259 -24 0.0 0.0 - 6.1 0.00
9/1/26 - 0430 57.6 57.0 87 53.6 0.00 88.8 1,015.6 0.0 N | 0 0.0 SSW | 197 254 -25 0.0 0.0 - 6.1 0.00
9/1/26 - 0420 57.5 57.2 88 53.7 0.00 88.6 1,015.6 0.0 SSW | 197 0.0 SSW | 197 238 -25 0.0 0.0 - 6.1 0.00
9/1/26 - 0410 57.7 57.3 87 53.7 0.00 88.8 1,015.6 0.0 S | 182 0.2 S | 182 216 -26 0.0 0.0 - 6.1 0.00
9/1/26 - 0400 58.1 57.5 88 54.2 0.00 88.8 1,015.6 0.0 N | 0 0.0 S | 182 205 -27 0.0 0.0 - 6.1 0.00
9/1/26 - 0350 58.0 57.5 87 54.0 0.00 89.0 1,015.6 0.0 N | 0 0.0 S | 182 197 -28 0.0 0.0 - 6.1 0.00
9/1/26 - 0340 58.0 57.5 87 53.9 0.00 89.1 1,015.6 0.0 N | 0 0.0 SSW | 208 192 -29 0.0 0.0 - 6.1 0.00
9/1/26 - 0330 58.1 57.7 86 53.8 0.00 89.1 1,015.7 0.0 N | 0 0.0 SSW | 208 188 -29 0.0 0.0 - 6.1 0.00
9/1/26 - 0320 58.6 57.8 86 54.2 0.00 89.2 1,015.7 0.0 SSW | 208 0.5 SSW | 208 185 -30 0.0 0.0 - 6.1 0.00
9/1/26 - 0310 59.0 58.4 86 54.6 0.00 89.2 1,015.8 0.0 SSE | 162 0.2 SSE | 162 183 -30 0.0 0.0 - 6.1 0.00
9/1/26 - 0300 59.0 58.7 86 54.8 0.00 89.2 1,015.7 0.1 SSE | 159 0.6 SSE | 159 181 -32 0.0 0.0 - 6.1 0.00
9/1/26 - 0250 59.2 58.8 86 54.9 0.00 89.1 1,015.7 0.1 SSE | 167 0.9 SSE | 165 179 -34 0.0 0.0 - 6.1 0.00
9/1/26 - 0240 59.6 59.0 86 55.3 0.00 89.1 1,015.6 0.1 SSE | 167 0.8 SSE | 147 179 -36 0.0 0.0 - 6.1 0.00
9/1/26 - 0230 59.7 59.4 85 55.2 0.00 88.9 1,015.6 0.0 N | 0 0.0 S | 173 178 -38 0.0 0.0 - 6.1 0.00
9/1/26 - 0220 59.9 59.5 84 54.9 0.00 88.8 1,015.5 0.0 N | 0 0.0 S | 181 178 -42 0.0 0.0 - 6.1 0.00
9/1/26 - 0210 60.0 59.8 84 55.0 0.00 88.9 1,015.6 0.1 SSW | 194 1.0 SSW | 198 224 -47 0.0 0.0 - 6.1 0.00
9/1/26 - 0200 60.4 59.8 83 54.8 0.00 89.2 1,015.6 0.0 SSW | 198 0.4 SSW | 199 234 -50 0.0 0.0 - 6.1 0.00
9/1/26 - 0150 60.6 60.3 82 54.9 0.00 89.6 1,015.7 0.0 N | 0 0.0 S | 189 242 -54 0.0 0.0 - 6.1 0.00
9/1/26 - 0140 61.1 60.4 82 55.1 0.00 89.9 1,015.6 0.0 S | 179 0.9 SSE | 164 255 -57 0.0 0.0 - 6.1 0.00
9/1/26 - 0130 61.1 60.6 80 54.8 0.00 90.3 1,015.6 0.1 SW | 220 1.1 SW | 221 264 -61 0.0 0.0 - 6.1 0.00
9/1/26 - 0120 61.5 60.9 79 54.8 0.00 90.7 1,015.7 0.0 N | 0 0.0 S | 182 267 -63 0.0 0.0 - 6.1 0.00
9/1/26 - 0110 61.9 61.4 80 55.4 0.00 90.9 1,015.8 0.0 N | 0 0.0 S | 179 268 -63 0.0 0.0 - 6.1 0.00
9/1/26 - 0100 61.9 61.4 78 54.9 0.00 91.1 1,015.7 0.0 N | 0 0.0 S | 169 271 -65 0.0 17.7 - 6.1 0.00
9/1/26 - 0050 61.9 61.5 75 53.7 0.00 91.0 1,015.7 0.0 SSE | 168 0.5 SSE | 168 269 -66 0.0 17.7 - 6.1 0.00
9/1/26 - 0040 61.8 61.4 75 53.7 0.00 90.8 1,015.8 0.0 N | 0 0.0 SSE | 168 268 -66 0.0 17.7 - 6.1 0.00
9/1/26 - 0030 62.1 61.6 74 53.3 0.00 90.6 1,015.8 0.1 SSE | 154 0.7 SE | 143 268 -67 0.0 17.7 - 6.1 0.00
9/1/26 - 0020 62.3 61.9 74 53.6 0.00 90.6 1,015.8 0.5 SSW | 192 1.7 SSW | 196 267 -66 0.0 17.7 - 6.1 0.00
9/1/26 - 0010 62.1 61.6 73 53.2 0.00 90.5 1,015.7 0.7 SW | 217 1.7 SSW | 211 267 -66 0.0 17.7 - 6.1 0.00
9/1/26 - 0000 62.4 61.8 72 52.9 0.00 90.6 1,015.6 0.0 SW | 216 0.7 SW | 224 267 -69 0.0 17.7 - 6.1 0.00
8/31/26 - 2350 62.9 62.2 72 53.4 0.00 90.6 1,015.4 0.1 SE | 140 0.8 SE | 137 267 -70 0.0 17.7 - 6.1 0.00
8/31/26 - 2340 63.4 62.7 71 53.6 0.00 90.4 1,015.3 0.1 SSW | 192 1.2 SSW | 205 267 -70 0.0 17.7 - 6.1 0.00
8/31/26 - 2330 63.6 63.2 70 53.5 0.00 90.4 1,015.2 0.2 SSW | 193 1.1 S | 190 266 -70 0.0 17.7 - 6.1 0.00
8/31/26 - 2320 64.3 63.6 69 53.4 0.00 90.5 1,015.1 0.3 SSW | 207 1.3 SW | 225 266 -71 0.0 17.7 - 6.1 0.00
8/31/26 - 2310 65.0 64.1 67 53.3 0.00 90.6 1,015.1 0.5 SSW | 192 1.5 SSW | 201 266 -71 0.0 17.7 - 6.1 0.00
8/31/26 - 2300 65.0 64.5 67 53.5 0.00 90.6 1,015.0 1.0 SSW | 206 2.4 SW | 226 266 -71 0.0 17.7 - 6.1 0.00
8/31/26 - 2250 65.3 64.7 66 53.3 0.00 90.7 1,014.9 0.0 SW | 232 0.8 SW | 231 266 -72 0.0 17.7 - 6.1 0.00
8/31/26 - 2240 65.6 64.9 65 53.3 0.00 90.7 1,014.9 0.1 SW | 227 0.7 SSW | 205 265 -73 0.0 17.7 - 6.1 0.00
8/31/26 - 2230 66.4 65.4 63 53.2 0.00 90.8 1,015.0 0.1 SE | 139 0.9 SE | 142 265 -74 0.0 17.7 - 6.1 0.00
8/31/26 - 2220 67.3 66.4 61 53.2 0.00 90.6 1,014.9 0.5 SW | 226 4.0 WSW | 257 264 -76 0.0 17.7 - 6.1 0.00
8/31/26 - 2210 67.5 67.0 62 53.7 0.00 90.6 1,014.9 0.1 SW | 225 2.4 WSW | 249 264 -77 0.0 17.6 - 6.1 0.00
8/31/26 - 2200 68.2 67.2 61 53.8 0.00 90.5 1,014.9 0.1 S | 185 1.0 S | 179 264 -76 0.0 17.6 - 6.1 0.00
8/31/26 - 2150 68.6 68.0 60 54.0 0.00 90.1 1,014.8 0.0 S | 170 0.1 S | 180 264 -78 0.0 17.6 - 6.1 0.00
8/31/26 - 2140 68.9 68.3 59 53.8 0.00 90.0 1,014.7 1.0 SW | 222 4.0 SW | 231 264 -78 0.2 17.6 - 6.1 0.00
8/31/26 - 2130 68.5 67.4 59 53.0 0.00 90.0 1,014.6 1.5 SW | 234 4.1 WSW | 257 264 -78 0.1 17.6 - 6.1 0.00
8/31/26 - 2120 68.1 67.6 58 52.4 0.00 89.9 1,014.5 0.0 WSW | 249 0.3 W | 262 264 -79 0.0 17.6 - 6.1 0.00
8/31/26 - 2110 68.7 68.0 57 52.4 0.00 90.2 1,014.4 0.4 SW | 218 1.3 SW | 214 264 -79 0.0 17.6 - 6.1 0.00
8/31/26 - 2100 69.2 68.5 56 52.6 0.00 90.5 1,014.2 1.0 SSW | 209 1.6 SSW | 196 263 -79 0.0 17.6 - 6.1 0.00
8/31/26 - 2050 70.5 69.1 55 52.7 0.00 90.9 1,014.1 0.6 SW | 225 1.6 SW | 230 263 -81 0.1 17.6 - 6.1 0.00
8/31/26 - 2040 71.4 70.2 52 52.5 0.00 91.1 1,014.0 0.1 ESE | 106 1.5 E | 96 263 -83 0.0 17.6 - 6.1 0.00
8/31/26 - 2030 72.4 71.3 50 52.3 0.00 91.4 1,013.9 0.1 SSE | 162 1.2 SE | 140 262 -85 0.1 17.6 - 6.1 0.00
8/31/26 - 2020 74.5 72.4 48 52.6 0.00 91.5 1,013.8 0.1 SSW | 211 1.8 W | 279 262 -86 0.1 17.6 - 6.1 0.00
8/31/26 - 2010 74.8 74.3 48 53.3 0.00 91.1 1,013.6 1.2 W | 265 3.7 W | 263 262 -88 0.7 17.5 - 6.1 0.00
8/31/26 - 2000 75.1 74.6 47 53.5 0.00 91.7 1,013.6 0.3 W | 279 2.5 WNW | 283 262 -90 0.1 17.4 - 6.1 0.00
8/31/26 - 1950 75.1 74.8 46 53.1 0.00 91.4 1,013.6 0.2 WNW | 302 3.0 W | 262 262 -91 0.2 17.4 - 6.1 0.00
8/31/26 - 1940 76.2 75.1 37 47.8 0.00 91.3 1,013.5 1.3 WSW | 250 4.6 WSW | 254 261 -92 0.5 17.4 - 6.1 0.00
8/31/26 - 1930 76.8 76.0 36 47.6 0.00 91.3 1,013.5 0.3 SW | 236 2.5 S | 183 261 -95 0.2 17.3 - 6.1 0.00
8/31/26 - 1920 77.8 76.4 33 45.5 0.00 91.0 1,013.5 1.5 SSW | 209 3.7 S | 178 260 -95 0.5 17.2 - 6.1 0.00
8/31/26 - 1910 79.2 77.5 31 45.4 0.00 90.9 1,013.4 1.8 S | 183 3.9 S | 169 260 -94 0.7 17.2 - 6.1 0.00
8/31/26 - 1900 80.2 79.1 29 44.5 0.00 90.7 1,013.2 1.9 S | 186 4.3 S | 187 260 -75 0.9 17.0 - 6.1 0.00
8/31/26 - 1850 81.2 80.2 26 43.1 0.00 90.6 1,013.2 2.2 SSW | 195 4.4 SSE | 157 260 -57 1.1 16.9 - 6.1 0.00
8/31/26 - 1840 81.8 81.2 25 42.2 0.00 90.6 1,013.2 2.2 SSW | 196 4.5 SW | 220 260 -33 1.3 16.7 - 6.2 0.00
8/31/26 - 1830 82.6 81.4 25 42.1 0.00 90.1 1,013.1 2.4 S | 177 5.5 S | 183 259 -6 1.2 16.5 - 6.2 0.00
8/31/26 - 1820 83.0 82.4 21 39.4 0.00 90.0 1,013.0 2.5 S | 176 4.7 S | 186 259 20 1.7 16.3 - 6.2 0.00
8/31/26 - 1810 83.4 82.8 21 39.6 0.00 89.7 1,013.0 3.4 S | 183 6.4 SSE | 151 259 48 2.4 16.0 - 6.2 0.00
8/31/26 - 1800 84.3 83.4 19 37.8 0.00 89.5 1,013.1 4.3 S | 188 7.8 SSW | 211 259 73 2.7 15.6 - 6.2 0.00
8/31/26 - 1750 84.9 84.1 22 41.0 0.00 89.2 1,013.0 3.7 SSW | 193 7.1 SW | 228 258 98 2.4 15.2 - 6.2 0.00
8/31/26 - 1740 85.5 84.6 22 41.8 0.00 89.5 1,013.0 3.6 SSE | 155 6.2 ESE | 110 259 125 1.9 14.8 - 6.2 0.00
8/31/26 - 1730 86.0 84.9 20 39.5 0.00 89.7 1,013.0 4.6 SSW | 197 7.6 SW | 232 259 147 3.0 14.4 - 6.2 0.00
8/31/26 - 1720 86.8 85.6 18 38.1 0.00 89.7 1,013.1 4.6 S | 178 8.7 S | 171 259 172 2.7 13.9 - 6.2 0.00
8/31/26 - 1710 87.4 86.6 16 35.8 0.00 89.6 1,013.1 4.1 S | 191 7.9 S | 190 258 196 2.3 13.5 - 6.2 0.00
8/31/26 - 1700 88.0 86.9 16 35.4 0.00 89.6 1,013.0 4.1 SSW | 194 7.5 S | 170 258 220 2.7 13.1 - 6.2 0.00
8/31/26 - 1650 88.2 87.0 16 35.8 0.00 89.5 1,013.0 4.1 S | 171 8.3 SSE | 154 258 238 2.2 12.7 - 6.2 0.00
8/31/26 - 1640 88.2 87.4 14 33.4 0.00 89.4 1,013.0 3.6 SSE | 148 6.5 S | 186 258 259 1.7 12.3 - 6.2 0.00
8/31/26 - 1630 88.2 87.6 16 35.5 0.00 89.3 1,013.0 3.9 S | 173 8.1 SE | 144 258 276 2.3 12.0 - 6.2 0.00
8/31/26 - 1620 88.0 86.7 18 38.8 0.00 89.1 1,013.0 4.2 SSE | 160 7.7 SSE | 166 259 300 2.0 11.6 - 6.2 0.00
8/31/26 - 1610 87.8 87.0 22 43.4 0.00 89.1 1,013.1 4.6 SSE | 147 11.4 SE | 146 259 318 2.0 11.3 - 6.2 0.00
8/31/26 - 1600 87.5 87.1 23 44.5 0.00 88.8 1,013.1 4.6 S | 169 8.2 SSE | 166 259 335 2.6 10.9 - 6.2 0.00
8/31/26 - 1550 88.5 87.2 22 44.6 0.00 88.4 1,013.1 4.8 S | 180 8.7 SSW | 196 259 352 3.1 10.5 - 6.2 0.00
8/31/26 - 1540 89.0 88.2 24 47.4 0.00 88.3 1,013.1 4.0 SSE | 163 8.8 S | 188 259 367 2.2 10.0 - 6.2 0.00
8/31/26 - 1530 88.5 87.8 24 47.2 0.00 88.3 1,013.2 3.9 SSE | 166 7.4 S | 175 260 389 2.2 9.6 - 6.2 0.00
8/31/26 - 1520 88.3 87.4 27 49.7 0.00 88.0 1,013.3 5.0 SSE | 167 9.8 SE | 130 260 403 2.8 9.3 - 6.2 0.00
8/31/26 - 1510 89.1 88.3 25 48.6 0.00 87.8 1,013.4 4.2 S | 181 7.4 SSW | 202 260 412 2.8 8.8 - 6.2 0.00
8/31/26 - 1500 89.3 88.6 25 48.2 0.00 88.9 1,013.5 3.4 SSE | 158 7.2 SE | 135 259 427 1.8 8.3 - 6.2 0.00
8/31/26 - 1450 89.1 87.9 26 48.9 0.00 88.7 1,013.6 3.5 SSE | 163 6.9 SE | 130 259 441 2.0 8.0 - 6.2 0.00
8/31/26 - 1440 88.3 87.7 28 50.8 0.00 88.5 1,013.7 3.8 SSE | 168 8.2 SW | 229 260 457 2.2 7.7 - 6.2 0.00
8/31/26 - 1430 88.0 86.7 30 52.6 0.00 88.0 1,013.8 4.5 S | 187 10.8 S | 169 259 470 2.7 7.3 - 6.2 0.00
8/31/26 - 1420 87.3 86.4 32 53.8 0.00 88.2 1,013.8 3.8 S | 190 7.8 SSW | 210 260 478 2.4 6.9 - 6.2 0.00
8/31/26 - 1410 87.8 86.8 33 54.5 0.00 88.2 1,013.9 3.8 S | 172 7.4 SSW | 200 260 481 2.2 6.5 - 6.2 0.00
8/31/26 - 1400 87.8 86.8 33 54.8 0.00 88.1 1,013.9 3.9 S | 190 8.6 SW | 231 260 491 2.5 6.1 - 6.2 0.00
8/31/26 - 1350 88.6 87.2 32 54.4 0.00 88.0 1,013.9 4.2 SSW | 210 9.3 SSW | 207 260 498 2.9 5.7 - 6.2 0.00
8/31/26 - 1340 88.5 88.0 30 53.0 0.00 88.1 1,013.9 4.1 S | 170 7.3 WSW | 242 260 505 2.2 5.2 - 6.2 0.00
8/31/26 - 1330 88.5 87.7 28 50.9 0.00 87.9 1,014.0 4.0 SSE | 151 7.4 SE | 140 260 507 2.2 4.9 - 6.2 0.00
8/31/26 - 1320 88.9 86.9 28 50.6 0.00 87.9 1,014.1 3.7 S | 184 7.7 SW | 224 260 513 2.3 4.5 - 6.2 0.00
8/31/26 - 1310 87.5 86.4 28 49.7 0.00 88.0 1,014.2 3.6 S | 170 6.9 SW | 219 260 515 2.5 4.1 - 6.2 0.00
8/31/26 - 1300 87.6 86.6 30 51.8 0.00 87.9 1,014.2 3.5 SSW | 205 7.5 S | 178 260 515 2.3 3.7 - 6.2 0.00
8/31/26 - 1250 88.8 86.8 33 55.0 0.00 87.5 1,014.3 2.9 SSE | 155 6.1 SE | 136 260 506 1.6 3.3 - 6.2 0.00
8/31/26 - 1240 87.7 86.6 39 58.9 0.00 87.4 1,014.4 2.9 ENE | 70 5.6 ENE | 78 260 501 1.6 3.1 - 6.2 0.00
8/31/26 - 1230 87.5 85.6 41 59.7 0.00 87.1 1,014.6 2.9 ESE | 115 6.5 E | 99 260 499 1.6 2.8 - 6.2 0.00
8/31/26 - 1220 87.1 85.8 41 59.7 0.00 87.0 1,014.7 1.8 ESE | 102 5.3 ESE | 119 260 498 1.4 2.5 - 6.2 0.00
8/31/26 - 1210 87.0 85.8 41 60.0 0.00 87.0 1,014.7 1.9 NE | 42 6.2 ENE | 63 260 491 1.0 2.3 - 6.2 0.00
8/31/26 - 1200 86.4 84.6 42 59.6 0.00 86.8 1,014.7 1.8 ENE | 67 5.8 SE | 133 260 489 0.8 2.1 - 6.2 0.00
8/31/26 - 1150 86.4 84.4 43 60.4 0.00 87.0 1,014.8 1.7 ENE | 62 4.0 SE | 133 260 482 1.0 2.0 - 6.2 0.00
8/31/26 - 1140 85.0 83.9 44 60.0 0.00 87.0 1,014.9 1.5 ENE | 67 4.0 SE | 125 260 474 0.9 1.8 - 6.2 0.00
8/31/26 - 1130 85.8 83.1 45 60.7 0.00 86.9 1,015.0 2.4 ENE | 66 6.0 E | 87 261 473 1.2 1.7 - 6.2 0.00
8/31/26 - 1120 85.5 82.8 45 60.7 0.00 87.2 1,015.1 1.1 NE | 38 3.0 NE | 56 261 461 0.8 1.5 - 6.2 0.00
8/31/26 - 1110 83.6 82.1 47 60.5 0.00 87.4 1,015.1 2.2 E | 79 6.1 E | 97 261 451 1.3 1.3 - 6.2 0.00
8/31/26 - 1100 83.1 82.3 48 60.7 0.00 87.8 1,015.1 1.7 ENE | 69 5.6 E | 91 261 437 1.0 1.1 - 6.2 0.00
8/31/26 - 1050 82.7 81.6 49 60.9 0.00 88.1 1,015.0 1.4 NNE | 21 3.8 NNE | 13 261 425 0.5 1.0 - 6.2 0.00
8/31/26 - 1040 82.1 80.4 50 60.9 0.00 88.3 1,015.1 1.4 NE | 48 4.0 NNE | 31 261 413 0.6 0.9 - 6.2 0.00
8/31/26 - 1030 81.0 79.8 51 60.9 0.00 88.5 1,015.2 1.8 NE | 44 4.8 ENE | 74 261 398 0.7 0.8 - 6.2 0.00
8/31/26 - 1020 80.7 80.1 51 60.8 0.00 88.7 1,015.2 0.9 NNE | 27 3.9 NNE | 29 261 382 0.4 0.7 - 6.2 0.00
8/31/26 - 1010 80.3 78.4 53 60.7 0.00 88.6 1,015.3 0.8 NNE | 18 3.7 ENE | 59 262 367 0.4 0.6 - 6.2 0.00
8/31/26 - 1000 78.5 76.7 55 60.3 0.00 89.2 1,015.2 0.6 N | 7 3.6 ENE | 76 261 346 0.6 0.5 - 6.2 0.00
8/31/26 - 0950 77.7 76.5 56 60.2 0.00 89.0 1,015.2 1.3 NNE | 31 3.5 N | 7 262 327 0.4 0.4 - 6.2 0.00
8/31/26 - 0940 76.7 75.8 57 60.1 0.00 89.5 1,015.1 1.2 NNE | 29 3.5 NNE | 31 262 306 0.2 0.4 - 6.2 0.00
8/31/26 - 0930 76.0 75.2 59 60.0 0.00 89.2 1,015.1 1.2 NE | 44 3.7 ENE | 67 262 284 0.5 0.3 - 6.2 0.00
8/31/26 - 0920 76.3 75.2 58 60.0 0.00 89.1 1,015.0 1.2 NNE | 25 4.1 N | 350 262 262 0.4 0.2 - 6.2 0.00
8/31/26 - 0910 75.6 74.4 59 59.8 0.00 89.1 1,015.1 0.9 NE | 36 3.2 E | 89 262 241 0.5 0.2 - 6.2 0.00
8/31/26 - 0900 74.5 73.5 60 59.4 0.00 89.3 1,015.1 1.2 NNE | 24 3.6 N | 352 262 221 0.2 0.1 - 6.2 0.00
8/31/26 - 0850 74.5 73.5 59 58.9 0.00 89.2 1,015.0 1.0 NNE | 30 2.7 E | 80 262 203 0.1 0.1 - 6.2 0.00
8/31/26 - 0840 74.2 73.6 58 58.3 0.00 89.0 1,015.0 0.9 NNE | 17 3.1 NE | 39 262 185 0.1 0.0 - 6.2 0.00
8/31/26 - 0830 74.5 73.9 57 58.0 0.00 89.1 1,014.9 0.5 NE | 37 1.8 ENE | 63 263 160 0.0 0.0 - 6.2 0.00
8/31/26 - 0820 73.9 73.3 57 57.6 0.00 89.1 1,014.9 0.3 ENE | 59 1.6 ENE | 77 264 133 0.1 0.0 14.6 6.2 0.00
8/31/26 - 0810 73.4 72.2 59 58.0 0.00 89.1 1,014.9 0.2 NE | 53 1.6 E | 89 266 85 0.1 0.0 64.0 6.2 0.00
8/31/26 - 0800 72.5 69.7 62 57.8 0.00 89.2 1,014.8 0.1 NNE | 29 1.1 NE | 35 267 85 0.0 0.0 - 6.2 0.00
8/31/26 - 0750 69.6 66.5 71 58.1 0.00 89.2 1,014.8 0.0 N | 0 0.0 SE | 124 268 38 0.0 0.0 - 6.2 0.00
8/31/26 - 0740 66.5 65.2 76 58.2 0.00 89.2 1,014.7 0.0 N | 0 0.0 SE | 124 269 -1 0.0 0.0 - 6.2 0.00
8/31/26 - 0730 65.2 63.3 80 58.0 0.00 89.3 1,014.6 0.0 N | 0 0.0 SE | 124 264 -10 0.0 0.0 - 6.2 0.00
8/31/26 - 0720 63.4 62.5 82 57.3 0.00 89.4 1,014.5 0.0 N | 0 0.0 SE | 124 227 -8 0.0 0.0 - 6.2 0.00
8/31/26 - 0710 62.6 61.4 84 57.1 0.00 89.5 1,014.4 0.0 N | 0 0.0 SSE | 167 188 -15 0.0 0.0 - 6.2 0.00
8/31/26 - 0700 61.6 61.0 84 56.5 0.00 89.4 1,014.3 0.0 S | 174 0.0 S | 172 174 -21 0.0 0.0 - 6.2 0.00
8/31/26 - 0650 61.1 60.8 84 56.2 0.00 89.6 1,014.1 0.0 SE | 145 0.0 SE | 145 173 -27 0.0 0.0 - 6.2 0.00
8/31/26 - 0640 61.5 61.0 84 56.4 0.00 89.6 1,014.0 0.0 N | 0 0.0 S | 171 173 -32 0.0 0.0 - 6.2 0.00
8/31/26 - 0630 61.8 61.3 84 56.7 0.00 89.5 1,014.0 0.0 N | 0 0.0 SSE | 150 173 -37 0.0 0.0 - 6.2 0.00
8/31/26 - 0620 62.0 61.6 84 56.9 0.00 89.4 1,014.0 0.0 N | 0 0.0 SSE | 154 176 -40 0.0 0.0 - 6.2 0.00
8/31/26 - 0610 62.2 61.8 83 56.9 0.00 89.3 1,013.9 0.0 N | 0 0.0 SSE | 155 222 -44 0.0 0.0 - 6.2 0.00
8/31/26 - 0600 62.6 62.1 83 57.2 0.00 89.2 1,013.9 0.0 N | 0 0.0 SSE | 160 230 -46 0.0 0.0 - 6.2 0.00
8/31/26 - 0550 62.7 62.4 83 57.3 0.00 89.2 1,013.8 0.0 N | 0 0.0 SSE | 160 242 -47 0.0 0.0 - 6.2 0.00
8/31/26 - 0540 62.6 62.2 82 57.0 0.00 89.3 1,013.8 0.0 N | 0 0.0 SSE | 161 252 -51 0.0 0.0 - 6.2 0.00
8/31/26 - 0530 63.0 62.5 82 57.2 0.00 89.5 1,013.8 0.0 N | 0 0.0 SSE | 152 258 -52 0.0 0.0 - 6.2 0.00
8/31/26 - 0520 63.1 62.8 82 57.5 0.00 90.1 1,013.7 0.0 S | 177 0.5 S | 177 264 -53 0.0 0.0 - 6.2 0.00
8/31/26 - 0510 63.4 62.9 82 57.5 0.00 90.4 1,013.7 0.0 N | 0 0.0 SSW | 207 267 -54 0.0 0.0 - 6.2 0.00
8/31/26 - 0500 63.4 63.1 81 57.5 0.00 90.4 1,013.7 0.0 N | 0 0.0 SSW | 207 269 -55 0.0 0.0 - 6.2 0.00
8/31/26 - 0450 63.9 63.3 80 57.4 0.00 90.5 1,013.7 0.0 N | 0 0.0 SSW | 207 271 -56 0.0 0.0 - 6.2 0.00
8/31/26 - 0440 64.4 63.7 79 57.5 0.00 90.4 1,013.7 0.0 N | 0 0.0 SSW | 207 271 -57 0.0 0.0 - 6.2 0.00
8/31/26 - 0430 64.7 64.2 79 57.8 0.00 90.4 1,013.7 0.0 N | 0 0.0 SSW | 207 271 -58 0.0 0.0 - 6.2 0.00
8/31/26 - 0420 65.0 64.6 78 57.8 0.00 90.3 1,013.7 0.0 N | 0 0.0 SSW | 207 270 -57 0.0 0.0 - 6.2 0.00
8/31/26 - 0410 65.3 64.8 77 57.7 0.00 90.2 1,013.8 0.0 N | 0 0.0 ESE | 103 269 -57 0.0 0.0 - 6.2 0.00
8/31/26 - 0400 65.8 65.3 76 57.8 0.00 90.6 1,013.8 0.0 N | 0 0.0 E | 79 268 -57 0.0 0.0 - 6.2 0.00
8/31/26 - 0350 66.0 65.6 75 57.8 0.00 90.8 1,013.9 0.0 N | 0 0.0 NE | 48 267 -58 0.0 0.0 - 6.2 0.00
8/31/26 - 0340 66.4 65.8 74 57.7 0.00 90.7 1,013.9 0.0 N | 0 0.0 NE | 48 268 -58 0.0 0.0 - 6.2 0.00
8/31/26 - 0330 66.8 66.3 73 57.8 0.00 90.6 1,013.8 0.0 N | 0 0.0 SE | 135 266 -59 0.0 0.0 - 6.2 0.00
8/31/26 - 0320 66.9 66.6 73 57.7 0.00 90.6 1,013.8 0.0 N | 0 0.0 E | 86 266 -60 0.0 0.0 - 6.2 0.00
8/31/26 - 0310 67.2 66.8 72 57.7 0.00 90.4 1,013.8 0.0 E | 86 0.1 E | 86 266 -60 0.0 0.0 - 6.2 0.00
8/31/26 - 0300 67.1 66.7 73 57.8 0.00 90.3 1,013.8 0.1 ENE | 66 1.2 E | 80 266 -60 0.0 0.0 - 6.2 0.00
8/31/26 - 0250 67.2 66.8 72 57.8 0.00 90.2 1,013.7 0.0 E | 91 0.6 E | 79 266 -60 0.0 0.0 - 6.2 0.00
8/31/26 - 0240 67.4 66.9 72 57.6 0.00 90.2 1,013.8 0.2 E | 82 1.7 E | 95 266 -58 0.0 0.0 - 6.2 0.00
8/31/26 - 0230 67.8 67.1 69 57.0 0.00 90.8 1,013.7 0.0 ESE | 107 0.5 ESE | 104 266 -58 0.0 0.0 - 6.2 0.00
8/31/26 - 0220 68.3 67.7 68 56.9 0.00 90.9 1,013.6 0.0 N | 0 0.0 E | 91 266 -59 0.0 0.0 - 6.2 0.00
8/31/26 - 0210 68.3 68.0 67 57.0 0.00 90.8 1,013.6 0.2 E | 91 1.4 E | 90 266 -60 0.0 0.0 - 6.2 0.00
8/31/26 - 0200 68.4 68.0 67 56.9 0.00 90.8 1,013.6 0.0 ENE | 73 0.2 ENE | 73 266 -60 0.0 0.0 - 6.2 0.00
8/31/26 - 0150 68.6 68.2 67 57.0 0.00 90.7 1,013.6 0.0 N | 0 0.0 NNE | 26 266 -60 0.0 0.0 - 6.2 0.00
8/31/26 - 0140 68.8 68.5 67 57.2 0.00 90.6 1,013.7 0.0 N | 0 0.0 NNE | 26 266 -59 0.0 0.0 - 6.2 0.00
8/31/26 - 0130 69.1 68.7 67 57.4 0.00 90.7 1,013.7 0.0 N | 0 0.0 NNE | 26 266 -59 0.0 0.0 - 6.2 0.00
8/31/26 - 0120 69.3 69.0 66 57.4 0.00 90.9 1,013.6 0.1 NNE | 30 1.6 N | 2 266 -60 0.0 0.0 - 6.2 0.00
8/31/26 - 0110 69.6 69.1 66 57.6 0.00 91.3 1,013.5 0.0 NNW | 340 0.3 NNW | 340 265 -61 0.0 0.0 - 6.2 0.00
8/31/26 - 0100 70.2 69.4 65 57.5 0.00 91.7 1,013.5 0.0 N | 0 0.0 ESE | 105 265 -60 0.0 16.5 - 6.2 0.00
8/31/26 - 0050 70.7 70.1 63 57.3 0.00 92.0 1,013.4 0.0 ESE | 105 0.3 ESE | 105 265 -60 0.0 16.5 - 6.2 0.00
8/31/26 - 0040 70.7 70.4 63 57.3 0.00 92.4 1,013.3 0.2 E | 99 1.6 ENE | 64 264 -61 0.0 16.5 - 6.2 0.00
8/31/26 - 0030 70.7 70.4 63 57.3 0.00 92.6 1,013.3 0.1 E | 96 1.2 ENE | 62 264 -60 0.0 16.5 - 6.2 0.00
8/31/26 - 0020 70.4 69.6 64 57.3 0.00 92.9 1,013.3 0.3 E | 85 2.9 E | 83 264 -60 0.0 16.5 - 6.3 0.00
8/31/26 - 0010 69.9 69.5 63 56.7 0.00 92.9 1,013.3 0.2 ESE | 114 1.4 E | 101 264 -59 0.0 16.5 - 6.3 0.00
8/31/26 - 0000 70.5 69.8 63 56.8 0.00 92.7 1,013.3 0.0 N | 0 0.0 SSE | 168 264 -59 0.0 16.5 - 6.3 0.00
8/30/26 - 2350 70.7 70.2 61 56.5 0.00 92.6 1,013.3 0.0 N | 0 0.0 S | 169 264 -59 0.0 16.5 - 6.3 0.00
8/30/26 - 2340 70.7 70.4 60 56.0 0.00 92.5 1,013.4 0.0 S | 170 0.6 S | 169 264 -59 0.0 16.5 - 6.3 0.00
8/30/26 - 2330 70.9 70.5 59 55.5 0.00 92.4 1,013.3 0.1 SSW | 197 1.1 SSW | 197 264 -60 0.0 16.5 - 6.3 0.00
8/30/26 - 2320 71.0 70.7 57 55.1 0.00 92.2 1,013.4 0.0 SSW | 197 1.0 SSW | 197 264 -61 0.0 16.5 - 6.3 0.00
8/30/26 - 2310 71.4 70.8 57 54.9 0.00 92.2 1,013.3 0.0 N | 0 0.0 SE | 143 264 -61 0.0 16.5 - 6.3 0.00
8/30/26 - 2300 72.0 71.2 56 55.0 0.00 92.2 1,013.3 0.0 N | 0 0.0 SE | 143 264 -62 0.0 16.5 - 6.3 0.00
8/30/26 - 2250 72.1 71.7 55 55.0 0.00 92.1 1,013.3 0.2 SW | 224 1.4 SW | 224 263 -63 0.0 16.5 - 6.3 0.00
8/30/26 - 2240 72.3 71.8 56 55.6 0.00 92.1 1,013.3 0.7 SSW | 210 1.5 SSW | 203 263 -62 0.0 16.5 - 6.3 0.00
8/30/26 - 2230 73.0 72.2 56 55.9 0.00 92.1 1,013.3 0.0 N | 0 0.0 SSW | 196 263 -63 0.0 16.5 - 6.3 0.00
8/30/26 - 2220 73.6 72.8 55 55.9 0.00 92.2 1,013.3 0.0 N | 0 0.0 E | 90 263 -64 0.0 16.5 - 6.3 0.00
8/30/26 - 2210 74.2 73.5 53 55.8 0.00 92.1 1,013.3 0.1 E | 90 0.9 E | 90 263 -65 0.0 16.5 - 6.3 0.00
8/30/26 - 2200 74.7 74.0 52 55.9 0.00 92.2 1,013.2 0.1 E | 88 0.8 E | 101 263 -66 0.0 16.5 - 6.3 0.00
8/30/26 - 2150 75.2 74.6 51 55.8 0.00 92.3 1,013.1 0.0 NW | 319 0.9 NW | 319 263 -67 0.0 16.5 - 6.3 0.00
8/30/26 - 2140 75.8 75.2 51 56.0 0.00 92.3 1,013.1 0.3 SW | 221 1.6 WSW | 252 262 -69 0.0 16.5 - 6.3 0.00
8/30/26 - 2130 76.2 75.7 50 56.1 0.00 92.2 1,013.0 0.2 SSW | 203 1.9 SSW | 197 262 -70 0.0 16.5 - 6.3 0.00
8/30/26 - 2120 76.4 76.0 50 56.0 0.00 92.1 1,012.9 1.3 SSW | 202 2.8 SSW | 200 262 -70 0.1 16.5 - 6.3 0.00
8/30/26 - 2110 76.7 76.1 49 55.8 0.00 91.8 1,012.9 2.2 SSW | 211 3.9 WSW | 237 262 -68 0.5 16.5 - 6.3 0.00
8/30/26 - 2100 76.9 76.5 48 55.8 0.00 91.7 1,012.8 2.4 SSW | 213 4.3 SW | 233 262 -69 0.5 16.4 - 6.3 0.00
8/30/26 - 2050 77.5 76.8 48 56.0 0.00 91.7 1,012.6 1.8 SW | 231 3.6 WSW | 240 262 -70 0.1 16.3 - 6.3 0.00
8/30/26 - 2040 77.7 77.3 48 56.4 0.00 91.5 1,012.4 1.5 SSW | 212 2.3 SW | 226 262 -70 0.0 16.3 - 6.3 0.00
8/30/26 - 2030 78.0 77.3 49 57.0 0.00 91.2 1,012.2 1.0 SSW | 210 3.0 SSW | 203 262 -71 0.0 16.3 - 6.3 0.00
8/30/26 - 2020 78.4 77.8 48 57.1 0.00 91.2 1,012.1 1.6 SSW | 208 3.5 SW | 225 262 -74 0.1 16.2 - 6.3 0.00
8/30/26 - 2010 79.2 78.3 48 57.3 0.00 91.1 1,012.0 1.8 SSW | 211 3.1 SSW | 210 262 -75 0.1 16.2 - 6.3 0.00
8/30/26 - 2000 80.0 78.9 47 57.3 0.00 91.2 1,011.8 2.2 SW | 223 4.1 SSW | 200 262 -77 0.8 16.2 - 6.3 0.00
8/30/26 - 1950 81.1 79.9 46 57.7 0.00 91.0 1,011.8 2.8 SW | 235 6.1 WSW | 249 262 -78 1.0 16.1 - 6.3 0.00
8/30/26 - 1940 81.9 81.1 45 58.2 0.00 90.9 1,011.7 2.3 W | 268 5.9 W | 269 262 -78 1.8 15.9 - 6.3 0.00
8/30/26 - 1930 83.0 81.9 44 58.5 0.00 91.6 1,011.5 3.3 W | 266 6.1 WSW | 244 262 -77 2.1 15.6 - 6.3 0.00
8/30/26 - 1920 84.1 83.0 43 59.1 0.00 92.1 1,011.5 1.0 WNW | 282 4.5 W | 263 262 -77 0.8 15.3 - 6.3 0.00
8/30/26 - 1910 85.0 84.0 42 59.3 0.00 91.5 1,011.5 0.4 NW | 316 1.6 W | 274 261 -72 0.3 15.2 - 6.4 0.00
8/30/26 - 1900 85.8 84.9 42 59.5 0.00 92.2 1,011.4 0.8 NW | 321 3.7 WNW | 301 261 -66 1.0 15.1 - 6.4 0.00
8/30/26 - 1850 87.3 85.7 40 59.6 0.00 92.6 1,011.4 1.3 WNW | 288 6.5 W | 262 261 -61 1.2 14.9 - 6.4 0.00
8/30/26 - 1840 88.2 87.2 39 59.9 0.00 92.5 1,011.5 0.6 NW | 322 3.1 W | 262 261 -40 1.0 14.8 - 6.4 0.00
8/30/26 - 1830 88.9 87.9 39 60.0 0.00 92.4 1,011.5 2.0 W | 273 5.9 NW | 307 261 10 1.5 14.6 - 6.4 0.00
8/30/26 - 1820 89.2 88.1 38 59.4 0.00 92.2 1,011.4 3.5 WSW | 244 5.8 WSW | 245 261 2 1.5 14.3 - 6.4 0.00
8/30/26 - 1810 89.1 88.6 37 59.2 0.00 92.0 1,011.2 2.4 SSW | 203 5.5 WSW | 252 260 58 1.1 14.1 - 6.4 0.00
8/30/26 - 1800 89.9 88.7 36 59.0 0.00 91.8 1,011.2 3.2 S | 186 6.8 SSW | 208 260 83 1.7 13.9 - 6.4 0.00
8/30/26 - 1750 89.8 89.3 36 59.0 0.00 91.4 1,011.1 4.0 SSW | 196 7.9 SW | 215 260 135 2.5 13.6 - 6.4 0.00
8/30/26 - 1740 89.8 89.3 36 58.9 0.00 91.4 1,011.0 4.7 S | 190 8.6 SSW | 213 260 187 3.0 13.2 - 6.4 0.00
8/30/26 - 1730 90.9 89.8 34 58.5 0.00 91.0 1,011.0 4.5 S | 191 8.2 SW | 215 260 212 2.7 12.7 - 6.4 0.00
8/30/26 - 1720 90.5 89.7 34 58.2 0.00 90.9 1,011.0 3.8 S | 188 7.7 S | 173 260 217 2.3 12.3 - 6.4 0.00
8/30/26 - 1710 91.1 90.1 34 58.6 0.00 90.7 1,010.9 3.5 S | 172 6.5 SSE | 159 260 105 1.8 11.9 - 6.4 0.00
8/30/26 - 1700 92.8 90.9 33 58.6 0.00 90.7 1,010.9 3.2 S | 172 5.8 ESE | 104 260 106 1.6 11.6 - 6.4 0.00
8/30/26 - 1650 92.9 92.2 32 58.4 0.00 90.4 1,011.0 4.0 S | 177 7.6 S | 185 260 280 2.0 11.3 - 6.4 0.00
8/30/26 - 1640 93.2 92.1 31 57.7 0.00 90.4 1,011.0 4.1 S | 188 8.0 SW | 232 260 265 2.4 11.0 - 6.4 0.00
8/30/26 - 1630 93.2 92.4 30 57.2 0.00 90.1 1,011.1 4.0 SSW | 206 8.3 SSW | 203 260 285 2.3 10.6 - 6.4 0.00
8/30/26 - 1620 95.0 92.4 29 56.7 0.00 90.1 1,011.1 3.8 S | 188 7.1 SSW | 210 260 167 2.3 10.2 - 6.4 0.00
8/30/26 - 1610 95.1 94.4 27 55.2 0.00 90.1 1,011.2 2.5 SSW | 199 6.8 S | 180 259 337 1.5 9.8 - 6.4 0.00
8/30/26 - 1600 95.1 93.9 27 55.3 0.00 89.9 1,011.2 3.3 SW | 224 6.5 SW | 214 259 391 2.4 9.6 - 6.5 0.00
8/30/26 - 1550 93.9 93.1 28 55.3 0.00 89.9 1,011.4 3.1 S | 189 6.2 SSW | 196 259 372 1.8 9.2 - 6.5 0.00
8/30/26 - 1540 94.5 93.6 27 55.0 0.00 89.9 1,011.6 4.8 WSW | 239 8.1 WSW | 253 259 370 3.1 8.9 - 6.5 0.00
8/30/26 - 1530 94.5 93.7 27 54.6 0.00 90.0 1,011.7 2.5 SSE | 166 5.3 SW | 222 260 384 1.7 8.4 - 6.5 0.00
8/30/26 - 1520 94.1 93.1 27 55.0 0.00 89.8 1,011.8 3.1 S | 178 7.7 S | 185 259 406 2.0 8.1 - 6.5 0.00
8/30/26 - 1510 93.9 92.9 29 56.2 0.00 89.7 1,012.0 3.7 S | 186 7.9 WSW | 240 260 428 2.5 7.7 - 6.5 0.00
8/30/26 - 1500 95.0 93.1 27 55.8 0.00 89.6 1,012.1 3.3 SSE | 148 7.8 SE | 144 259 431 1.6 7.3 - 6.5 0.00
8/30/26 - 1450 94.5 92.7 27 54.7 0.00 89.3 1,012.2 3.4 SSE | 157 6.6 ESE | 123 260 436 2.1 7.1 - 6.5 0.00
8/30/26 - 1440 93.1 92.4 27 54.3 0.00 89.3 1,012.3 4.3 SSW | 206 8.3 S | 180 260 447 3.0 6.7 - 6.5 0.00
8/30/26 - 1430 93.5 92.9 27 53.8 0.00 89.1 1,012.4 4.3 SSE | 149 7.8 SE | 125 259 456 2.1 6.2 - 6.5 0.00
8/30/26 - 1420 94.3 93.1 26 53.4 0.00 88.9 1,012.6 3.6 S | 175 7.4 SW | 230 259 463 2.3 5.9 - 6.5 0.00
8/30/26 - 1410 94.5 92.6 26 53.0 0.00 88.7 1,012.6 3.7 S | 188 8.4 ESE | 120 259 474 2.5 5.5 - 6.5 0.00
8/30/26 - 1400 93.6 92.7 26 53.4 0.00 88.8 1,012.7 3.9 S | 172 9.1 S | 180 259 480 2.1 5.1 - 6.5 0.00
8/30/26 - 1350 93.4 92.4 27 53.8 0.00 88.4 1,012.8 3.4 S | 169 6.6 WSW | 242 259 487 2.1 4.7 - 6.5 0.00
8/30/26 - 1340 93.3 92.4 28 54.9 0.00 88.2 1,012.8 3.8 S | 187 8.0 SE | 136 259 495 2.4 4.4 - 6.5 0.00
8/30/26 - 1330 94.0 92.5 30 56.7 0.00 88.1 1,012.9 2.9 ESE | 120 6.0 SSW | 197 259 498 1.7 4.0 - 6.5 0.00
8/30/26 - 1320 92.8 91.3 30 56.1 0.00 88.0 1,013.0 2.8 SE | 135 8.7 SE | 138 260 500 1.8 3.7 - 6.5 0.00
8/30/26 - 1310 92.6 91.5 30 55.8 0.00 88.4 1,013.1 2.2 SE | 124 5.9 E | 87 260 503 1.1 3.4 - 6.5 0.00
8/30/26 - 1300 92.4 91.1 29 55.5 0.00 88.0 1,013.1 3.4 SSE | 159 11.0 SE | 127 260 506 1.8 3.2 - 6.5 0.00
8/30/26 - 1250 93.1 92.0 30 56.6 0.00 88.0 1,013.1 3.5 ESE | 118 6.5 ENE | 78 259 502 1.8 2.9 - 6.5 0.00
8/30/26 - 1240 93.4 92.4 33 59.4 0.00 88.4 1,013.2 2.1 N | 358 6.2 E | 101 260 495 1.5 2.6 - 6.5 0.00
8/30/26 - 1230 93.9 92.1 33 59.8 0.00 89.0 1,013.3 1.9 NE | 52 5.8 SE | 131 260 491 1.2 2.3 - 6.5 0.00
8/30/26 - 1220 93.6 92.0 33 59.8 0.00 89.3 1,013.4 2.3 ENE | 61 4.4 E | 99 260 508 1.3 2.1 - 6.5 0.00
8/30/26 - 1210 93.4 92.3 34 60.2 0.00 89.1 1,013.4 2.3 NE | 49 6.9 ENE | 73 260 520 1.4 1.9 - 6.5 0.00
8/30/26 - 1200 92.9 91.5 34 60.3 0.00 89.0 1,013.5 1.3 N | 7 4.7 NNE | 16 260 571 0.8 1.7 - 6.5 0.00
8/30/26 - 1150 91.7 90.3 36 60.2 0.00 89.1 1,013.6 1.6 NNE | 21 4.8 NNE | 29 260 576 0.8 1.6 - 6.5 0.00
8/30/26 - 1140 91.3 90.0 36 60.2 0.00 88.9 1,013.6 2.3 NE | 56 6.6 E | 93 260 468 1.3 1.4 - 6.5 0.00
8/30/26 - 1130 90.2 87.4 40 61.6 0.00 88.9 1,013.7 0.9 NNE | 15 3.9 NNW | 341 260 584 0.3 1.2 - 6.5 0.00
8/30/26 - 1120 87.5 86.3 43 61.9 0.00 88.8 1,013.8 0.6 NE | 36 3.1 N | 349 261 270 0.4 1.1 - 6.5 0.00
8/30/26 - 1110 88.5 86.7 42 61.9 0.00 88.9 1,013.9 0.7 E | 89 3.6 SE | 130 260 402 0.6 1.1 - 6.5 0.00
8/30/26 - 1100 86.9 85.7 44 61.9 0.00 89.0 1,013.9 0.9 NE | 42 2.9 NNE | 27 260 421 0.5 1.0 - 6.5 0.00
8/30/26 - 1050 86.1 85.1 45 61.8 0.00 89.0 1,013.9 1.4 NE | 37 3.4 ENE | 64 261 282 0.4 0.9 - 6.5 0.00
8/30/26 - 1040 86.0 84.8 45 61.6 0.00 89.1 1,013.9 1.2 NE | 51 3.4 ENE | 78 261 380 0.4 0.8 - 6.5 0.00
8/30/26 - 1030 85.7 84.2 45 61.4 0.00 89.2 1,014.0 1.4 E | 83 4.5 E | 87 260 360 1.0 0.8 - 6.5 0.00
8/30/26 - 1020 85.6 83.3 46 61.5 0.00 89.3 1,013.9 0.9 NE | 48 3.3 ENE | 75 260 517 0.7 0.6 - 6.5 0.00
8/30/26 - 1010 83.4 81.4 49 61.2 0.00 89.2 1,013.9 0.7 NE | 44 2.3 N | 353 261 394 0.2 0.5 - 6.5 0.00
8/30/26 - 1000 81.5 80.8 51 61.2 0.00 89.4 1,013.9 0.8 ENE | 59 2.5 ESE | 109 262 242 0.4 0.5 - 6.5 0.00
8/30/26 - 0950 81.4 80.0 51 61.3 0.00 89.4 1,014.0 0.4 N | 6 3.4 NE | 40 262 189 0.1 0.4 - 6.5 0.00
8/30/26 - 0940 80.0 79.6 53 61.1 0.00 89.4 1,014.0 1.3 ENE | 74 4.5 ENE | 77 262 235 0.4 0.4 - 6.5 0.00
8/30/26 - 0930 79.7 78.8 54 61.1 0.00 89.2 1,014.0 1.0 NE | 47 3.9 E | 94 262 182 0.5 0.3 - 6.5 0.00
8/30/26 - 0920 78.8 78.0 56 61.2 0.00 89.3 1,014.0 0.7 E | 79 2.6 E | 79 262 189 0.3 0.2 - 6.5 0.00
8/30/26 - 0910 78.2 76.8 57 61.0 0.00 89.1 1,014.0 0.8 NE | 51 3.9 E | 84 263 167 0.4 0.2 - 6.5 0.00
8/30/26 - 0900 77.0 76.6 58 60.9 0.00 89.1 1,014.1 0.6 NNE | 15 3.4 NE | 35 263 119 0.0 0.1 - 6.5 0.00
8/30/26 - 0850 76.9 76.1 58 60.9 0.00 89.0 1,014.1 0.5 NE | 50 1.8 NE | 36 263 139 0.2 0.1 - 6.5 0.00
8/30/26 - 0840 76.2 75.5 60 60.8 0.00 89.1 1,014.1 1.0 NE | 45 3.4 E | 96 264 131 0.2 0.1 - 6.5 0.00
8/30/26 - 0830 76.0 75.5 60 60.9 0.00 88.9 1,014.1 0.6 NE | 51 3.2 ENE | 65 264 108 0.1 0.0 - 6.5 0.00
8/30/26 - 0820 75.5 74.2 61 60.6 0.00 89.1 1,014.1 0.1 NE | 37 1.1 N | 11 264 103 0.0 0.0 - 6.5 0.00
8/30/26 - 0810 74.2 73.8 62 60.4 0.00 89.4 1,014.2 0.0 NNE | 24 0.6 NNE | 25 265 26 0.0 0.0 - 6.5 0.00
8/30/26 - 0800 74.0 72.4 64 60.2 0.00 89.8 1,014.1 0.4 E | 84 1.7 ENE | 66 266 31 0.1 0.0 - 6.5 0.00
8/30/26 - 0750 72.5 70.3 68 60.2 0.00 90.1 1,014.0 0.0 ESE | 108 0.9 ESE | 109 266 -1 0.0 0.0 - 6.5 0.00
8/30/26 - 0740 70.5 69.2 71 59.9 0.00 90.4 1,014.0 0.0 N | 0 0.0 SW | 230 266 -14 0.0 0.0 - 6.5 0.00
8/30/26 - 0730 69.4 68.7 72 59.8 0.00 90.8 1,013.9 0.0 N | 0 0.0 SW | 230 266 -24 0.0 0.0 - 6.5 0.00
8/30/26 - 0720 68.8 68.2 73 59.6 0.00 91.1 1,013.9 0.0 N | 0 0.0 SW | 230 267 -27 0.0 0.0 - 6.5 0.00
8/30/26 - 0710 68.5 67.8 74 59.5 0.00 91.2 1,013.8 0.1 SW | 228 0.9 SW | 228 267 -30 0.0 0.0 - 6.5 0.00
8/30/26 - 0700 68.2 67.6 75 59.7 0.00 91.4 1,013.6 0.0 N | 0 0.0 SSW | 195 267 -35 0.0 0.0 - 6.5 0.00
8/30/26 - 0650 67.6 67.3 76 59.6 0.00 91.2 1,013.6 0.0 N | 0 0.0 SSE | 164 267 -37 0.0 0.0 - 6.5 0.00
8/30/26 - 0640 67.7 67.3 75 59.5 0.00 91.1 1,013.4 0.0 N | 0 0.0 SSE | 165 268 -43 0.0 0.0 - 6.5 0.00
8/30/26 - 0630 67.6 67.3 75 59.3 0.00 91.1 1,013.3 0.3 SE | 143 1.5 SE | 138 267 -45 0.0 0.0 - 6.5 0.00
8/30/26 - 0620 67.6 67.1 76 59.6 0.00 90.9 1,013.1 0.3 S | 184 1.0 SSW | 192 268 -43 0.0 0.0 - 6.5 0.00
8/30/26 - 0610 67.4 67.0 76 59.3 0.00 90.9 1,013.1 0.3 SE | 142 1.3 SE | 144 268 -47 0.0 0.0 - 6.5 0.00
8/30/26 - 0600 67.6 67.2 76 59.5 0.00 91.0 1,013.1 0.0 N | 0 0.0 SSE | 149 267 -49 0.0 0.0 - 6.5 0.00
8/30/26 - 0550 67.6 67.3 76 59.4 0.00 91.2 1,013.0 0.0 SSW | 195 0.7 SSW | 195 268 -51 0.0 0.0 - 6.5 0.00
8/30/26 - 0540 68.1 67.5 74 59.4 0.00 91.1 1,013.0 0.1 S | 188 0.7 SSW | 193 267 -52 0.0 0.0 - 6.5 0.00
8/30/26 - 0530 68.3 67.8 74 59.3 0.00 91.1 1,012.9 0.3 SSW | 202 1.3 SW | 230 267 -51 0.0 0.0 - 6.5 0.00
8/30/26 - 0520 68.0 67.7 74 59.5 0.00 91.2 1,012.9 0.4 SW | 232 1.9 SW | 234 266 -51 0.0 0.0 - 6.5 0.00
8/30/26 - 0510 68.4 67.7 74 59.4 0.00 91.2 1,013.0 0.3 SSW | 201 1.0 SSW | 206 267 -52 0.0 0.0 - 6.5 0.00
8/30/26 - 0500 68.9 68.3 72 59.4 0.00 91.0 1,012.9 0.0 SSW | 205 0.6 SSW | 205 267 -53 0.0 0.0 - 6.5 0.00
8/30/26 - 0450 69.4 68.7 72 59.7 0.00 91.1 1,012.9 0.1 SSW | 200 0.8 SSW | 201 266 -53 0.0 0.0 - 6.5 0.00
8/30/26 - 0440 69.5 69.1 71 59.7 0.00 91.1 1,012.8 0.0 N | 0 0.0 E | 96 266 -53 0.0 0.0 - 6.5 0.00
8/30/26 - 0430 69.4 69.2 71 59.7 0.00 91.2 1,012.7 0.0 N | 0 0.0 E | 95 266 -54 0.0 0.0 - 6.5 0.00
8/30/26 - 0420 69.8 69.1 71 59.6 0.00 91.3 1,012.6 0.1 ESE | 119 0.6 ESE | 121 266 -55 0.0 0.0 - 6.5 0.00
8/30/26 - 0410 69.9 69.7 71 59.9 0.00 91.3 1,012.7 0.0 N | 0 0.0 ESE | 121 266 -55 0.0 0.0 - 6.5 0.00
8/30/26 - 0400 70.2 69.9 70 60.0 0.00 91.4 1,012.7 0.0 N | 0 0.0 ESE | 121 266 -55 0.0 0.0 - 6.5 0.00
8/30/26 - 0350 70.4 70.1 71 60.3 0.00 91.4 1,012.7 0.0 ESE | 121 0.4 ESE | 121 266 -55 0.0 0.0 - 6.5 0.00
8/30/26 - 0340 70.5 70.2 71 60.5 0.00 91.4 1,012.7 0.0 N | 0 0.0 N | 7 266 -55 0.0 0.0 - 6.5 0.00
8/30/26 - 0330 70.4 70.1 71 60.6 0.00 91.3 1,012.7 0.0 NE | 38 0.4 NE | 38 266 -54 0.0 0.0 - 6.5 0.00
8/30/26 - 0320 70.9 70.2 70 60.4 0.00 91.2 1,012.7 0.0 N | 0 0.0 SSE | 158 266 -55 0.0 0.0 - 6.5 0.00
8/30/26 - 0310 71.2 70.8 70 60.8 0.00 91.2 1,012.7 0.0 N | 0 0.0 ENE | 58 266 -55 0.0 0.0 - 6.5 0.00
8/30/26 - 0300 71.5 71.2 70 60.9 0.00 91.0 1,012.7 0.0 N | 0 0.0 ENE | 58 266 -55 0.0 0.0 - 6.5 0.00
8/30/26 - 0250 72.0 71.4 68 60.8 0.00 91.0 1,012.6 0.0 N | 0 0.0 ENE | 58 266 -56 0.0 0.0 - 6.5 0.00
8/30/26 - 0240 72.5 71.9 68 61.0 0.00 90.9 1,012.5 0.0 ESE | 118 0.3 SE | 134 266 -58 0.0 0.0 - 6.5 0.00
8/30/26 - 0230 72.6 72.3 67 61.1 0.00 91.1 1,012.5 0.1 E | 89 1.2 E | 100 264 -59 0.0 0.0 - 6.5 0.00
8/30/26 - 0220 72.7 72.2 68 61.2 0.00 91.2 1,012.6 0.5 E | 89 2.8 NE | 42 265 -58 0.0 0.0 - 6.5 0.00
8/30/26 - 0210 73.1 72.4 66 61.0 0.00 91.5 1,012.5 0.2 ESE | 116 0.9 ESE | 106 265 -58 0.0 0.0 - 6.5 0.00
8/30/26 - 0200 73.8 73.0 65 60.9 0.00 91.9 1,012.4 0.0 E | 79 0.6 E | 82 264 -59 0.0 0.0 - 6.5 0.00
8/30/26 - 0150 74.5 73.6 64 60.8 0.00 91.9 1,012.5 0.1 E | 100 1.3 E | 94 264 -59 0.0 0.0 - 6.5 0.00
8/30/26 - 0140 75.3 74.4 62 60.8 0.00 92.6 1,012.5 0.0 ENE | 67 1.1 ESE | 116 264 -58 0.0 0.0 - 6.5 0.00
8/30/26 - 0130 75.7 75.2 60 60.7 0.00 92.6 1,012.6 0.1 NE | 38 1.6 N | 5 264 -58 0.0 0.0 - 6.5 0.00
8/30/26 - 0120 75.8 75.4 60 60.6 0.00 92.7 1,012.7 0.2 NNE | 26 1.4 NNE | 29 264 -57 0.0 0.0 - 6.5 0.00
8/30/26 - 0110 76.0 75.5 60 60.7 0.00 93.0 1,012.6 0.0 NE | 38 0.7 NE | 38 264 -53 0.0 0.0 - 6.5 0.00
8/30/26 - 0100 76.3 75.8 60 61.0 0.00 93.0 1,012.6 0.2 ENE | 60 1.9 ENE | 73 263 -50 0.0 15.5 - 6.5 0.00
8/30/26 - 0050 76.6 76.1 60 61.3 0.00 93.1 1,012.7 0.1 NNE | 31 1.5 NE | 43 264 -49 0.0 15.5 - 6.5 0.00
8/30/26 - 0040 76.6 76.2 60 61.5 0.00 93.1 1,012.6 0.1 NE | 35 0.9 NNE | 32 264 -50 0.0 15.5 - 6.5 0.00
8/30/26 - 0030 76.3 75.3 60 61.1 0.00 93.1 1,012.5 0.2 NNE | 30 1.1 E | 87 264 -47 0.0 15.5 - 6.5 0.00
8/30/26 - 0020 75.5 75.2 59 59.9 0.00 92.9 1,012.5 0.0 SE | 128 0.8 SE | 134 263 -43 0.0 15.5 - 6.5 0.00
8/30/26 - 0010 75.5 75.2 56 58.9 0.00 92.8 1,012.5 0.0 SE | 144 0.2 SE | 146 263 -42 0.0 15.5 - 6.6 0.00
8/30/26 - 0000 75.7 75.4 56 58.8 0.00 92.6 1,012.4 0.0 N | 0 0.0 SSE | 155 263 -45 0.0 15.5 - 6.6 0.00
8/29/26 - 2350 76.0 75.4 55 58.4 0.00 92.5 1,012.2 0.0 N | 0 0.0 SSE | 155 263 -47 0.0 15.5 - 6.6 0.00
8/29/26 - 2340 76.1 75.6 54 58.2 0.00 92.4 1,012.1 0.0 N | 0 0.0 SSW | 207 263 -50 0.0 15.5 - 6.6 0.00
8/29/26 - 2330 76.4 75.8 54 58.2 0.00 92.6 1,012.1 0.1 SSW | 195 1.0 S | 187 263 -52 0.0 15.5 - 6.6 0.00
8/29/26 - 2320 76.4 76.1 53 57.9 0.00 92.6 1,012.2 0.0 N | 0 0.0 SSW | 198 263 -51 0.0 15.5 - 6.6 0.00
8/29/26 - 2310 76.4 75.9 53 57.6 0.00 92.7 1,012.1 0.0 N | 0 0.0 SE | 142 262 -47 0.0 15.5 - 6.6 0.00
8/29/26 - 2300 76.6 76.0 52 57.4 0.00 92.7 1,012.1 0.0 N | 0 0.0 S | 170 262 -53 0.0 15.5 - 6.6 0.00
8/29/26 - 2250 76.9 76.4 51 57.4 0.00 92.8 1,012.0 0.0 N | 0 0.0 SE | 135 262 -56 0.0 15.5 - 6.6 0.00
8/29/26 - 2240 77.5 76.7 50 57.2 0.00 92.8 1,012.1 0.0 N | 0 0.0 SE | 143 262 -57 0.0 15.5 - 6.6 0.00
8/29/26 - 2230 78.3 77.4 48 56.9 0.00 92.8 1,012.1 0.3 SSW | 211 1.7 SSW | 212 262 -57 0.0 15.5 - 6.6 0.00
8/29/26 - 2220 78.0 77.5 48 56.8 0.00 92.7 1,012.2 1.1 SW | 216 2.3 SW | 236 262 -58 0.0 15.5 - 6.6 0.00
8/29/26 - 2210 78.7 77.9 48 56.8 0.00 92.6 1,012.2 0.4 SSW | 195 1.3 SSW | 201 262 -59 0.0 15.5 - 6.6 0.00
8/29/26 - 2200 79.3 78.5 47 56.6 0.00 92.3 1,012.3 0.8 SW | 218 2.0 SSW | 199 262 -61 0.0 15.5 - 6.6 0.00
8/29/26 - 2150 79.6 79.1 46 56.6 0.00 92.2 1,012.2 0.4 SSW | 207 2.5 SW | 217 262 -63 0.0 15.5 - 6.6 0.00
8/29/26 - 2140 79.2 78.3 46 56.4 0.00 92.1 1,012.2 1.9 SW | 223 3.0 SSW | 209 262 -62 0.1 15.5 - 6.6 0.00
8/29/26 - 2130 79.4 78.7 46 56.7 0.00 92.1 1,012.1 0.3 SW | 216 1.7 SW | 222 262 -65 0.0 15.5 - 6.6 0.00
8/29/26 - 2120 80.2 79.4 45 56.7 0.00 92.0 1,012.1 0.2 SSW | 201 1.4 SSW | 192 262 -66 0.0 15.5 - 6.6 0.00
8/29/26 - 2110 81.4 80.3 44 56.8 0.00 91.8 1,011.9 0.0 SW | 229 0.6 SW | 234 262 -67 0.1 15.5 - 6.6 0.00
8/29/26 - 2100 82.1 81.3 43 56.7 0.00 91.9 1,011.9 0.1 NE | 55 0.7 ENE | 67 261 -70 0.0 15.5 - 6.6 0.00
8/29/26 - 2050 82.6 81.8 42 56.6 0.00 92.0 1,011.8 0.7 SSW | 206 3.1 SW | 229 261 -71 0.0 15.5 - 6.6 0.00
8/29/26 - 2040 82.8 82.4 41 56.4 0.00 92.3 1,011.7 2.1 SW | 218 4.1 SSW | 200 261 -72 0.8 15.5 - 6.6 0.00
8/29/26 - 2030 83.4 82.7 40 56.6 0.00 92.5 1,011.5 2.2 SSW | 208 4.9 SSW | 213 261 -73 0.8 15.3 - 6.6 0.00
8/29/26 - 2020 84.3 83.3 39 56.5 0.00 92.5 1,011.4 2.4 SW | 221 4.5 SW | 232 261 -74 0.7 15.2 - 6.6 0.00
8/29/26 - 2010 84.3 84.0 38 55.6 0.00 93.0 1,011.3 1.0 SSW | 213 3.6 W | 259 261 -75 0.0 15.1 - 6.6 0.00
8/29/26 - 2000 85.7 84.0 36 54.8 0.00 93.0 1,011.2 2.7 SW | 216 3.9 SW | 221 261 -75 0.9 15.1 - 6.6 0.00
8/29/26 - 1950 86.4 85.6 35 55.0 0.00 93.1 1,011.2 0.9 W | 263 3.1 WSW | 241 260 -78 0.6 14.9 - 6.6 0.00
8/29/26 - 1940 86.7 86.2 34 55.1 0.00 93.5 1,011.3 0.0 NNW | 337 0.6 NNW | 344 260 -80 0.0 14.8 - 6.6 0.00
8/29/26 - 1930 87.5 86.6 34 55.4 0.00 93.4 1,011.2 0.1 N | 354 1.5 N | 354 260 -79 0.1 14.8 - 6.6 0.00
8/29/26 - 1920 87.9 87.1 34 55.5 0.00 93.1 1,011.1 0.5 WNW | 300 4.2 WNW | 289 260 -75 0.4 14.8 - 6.6 0.00
8/29/26 - 1910 89.3 87.8 33 56.2 0.00 93.0 1,011.1 0.7 WNW | 295 4.5 WNW | 300 260 -73 0.8 14.7 - 6.6 0.00
8/29/26 - 1900 90.4 89.1 33 56.6 0.00 92.8 1,011.0 1.7 W | 279 7.7 W | 264 260 -60 1.4 14.6 - 6.6 0.00
8/29/26 - 1850 91.5 90.4 32 56.8 0.00 92.8 1,011.0 1.3 WNW | 297 6.9 WNW | 300 260 -34 1.2 14.4 - 6.6 0.00
8/29/26 - 1840 93.1 91.3 32 57.7 0.00 92.4 1,011.0 0.8 NW | 316 5.1 WSW | 242 260 -17 1.1 14.2 - 6.6 0.00
8/29/26 - 1830 93.8 93.1 31 58.8 0.00 92.1 1,010.9 0.9 NW | 310 7.8 NW | 309 260 6 1.2 14.0 - 6.7 0.00
8/29/26 - 1820 94.0 93.4 31 58.8 0.00 92.1 1,010.8 2.0 W | 277 7.5 W | 269 260 30 1.9 13.8 - 6.7 0.00
8/29/26 - 1810 94.4 93.4 30 58.1 0.00 91.8 1,010.7 3.8 SW | 227 6.3 SW | 214 260 56 2.4 13.5 - 6.7 0.00
8/29/26 - 1800 95.8 94.3 30 59.3 0.00 91.7 1,010.7 2.2 WSW | 244 7.3 SW | 232 260 76 1.7 13.1 - 6.7 0.00
8/29/26 - 1750 95.6 94.8 29 58.2 0.00 91.5 1,010.7 1.9 WSW | 243 4.4 SSW | 208 260 99 1.2 12.8 - 6.7 0.00
8/29/26 - 1740 97.4 95.5 29 59.2 0.00 91.4 1,010.7 1.5 SSW | 205 3.9 SSW | 210 259 128 1.1 12.6 - 6.7 0.00
8/29/26 - 1730 97.1 96.0 27 57.6 0.00 91.3 1,010.8 1.7 WSW | 247 5.6 WSW | 238 259 156 1.2 12.4 - 6.7 0.00
8/29/26 - 1720 96.4 95.8 27 57.1 0.00 91.4 1,010.7 2.4 SSW | 205 5.4 SSW | 207 259 158 1.6 12.2 - 6.7 0.00
8/29/26 - 1710 96.4 95.3 28 57.1 0.00 91.4 1,010.6 4.1 SSW | 199 8.6 SSW | 203 259 197 2.7 12.0 - 6.7 0.00
8/29/26 - 1700 96.6 95.2 28 57.2 0.00 91.7 1,010.6 3.9 S | 179 8.6 SW | 216 259 206 2.3 11.5 - 6.7 0.00
8/29/26 - 1650 96.7 95.5 27 56.4 0.00 91.8 1,010.7 3.5 S | 180 6.7 SSW | 213 259 243 2.1 11.1 - 6.7 0.00
8/29/26 - 1640 97.0 95.9 25 55.3 0.00 90.7 1,010.7 5.0 SE | 130 8.2 ESE | 122 259 240 1.7 10.8 - 6.7 0.00
8/29/26 - 1630 98.7 96.9 24 55.4 0.00 91.9 1,010.8 4.1 SSE | 154 8.7 SE | 131 259 276 1.9 10.5 - 6.7 0.00
8/29/26 - 1620 98.5 97.5 24 55.6 0.00 91.8 1,010.8 3.1 S | 178 6.4 WSW | 250 259 295 1.8 10.2 - 6.7 0.00
8/29/26 - 1610 98.7 98.1 24 55.5 0.00 91.8 1,010.9 3.2 S | 187 6.1 SSW | 197 259 317 2.1 9.9 - 6.7 0.00
8/29/26 - 1600 98.2 97.5 24 55.3 0.00 91.5 1,010.9 3.0 SSE | 164 5.6 SSE | 161 259 327 1.8 9.5 - 6.7 0.00
8/29/26 - 1550 98.0 96.7 25 55.7 0.00 91.3 1,011.0 3.8 S | 176 8.1 SW | 216 259 358 2.4 9.2 - 6.7 0.00
8/29/26 - 1540 99.7 96.7 24 55.9 0.00 91.2 1,011.0 3.4 SSE | 155 8.7 SE | 145 259 287 2.1 8.8 - 6.7 0.00
8/29/26 - 1530 99.6 98.0 25 56.9 0.00 91.1 1,011.2 2.0 SSE | 150 7.9 ESE | 121 259 368 1.3 8.5 - 6.7 0.00
8/29/26 - 1520 98.6 98.0 25 56.4 0.00 90.8 1,011.4 3.9 S | 174 8.1 S | 186 259 349 2.1 8.3 - 6.9 0.00
8/29/26 - 1510 99.3 98.6 25 56.7 0.00 90.8 1,011.5 4.1 S | 182 8.8 SW | 221 259 422 2.3 7.9 - 6.9 0.00
8/29/26 - 1500 98.8 96.7 26 56.9 0.00 91.2 1,011.6 3.2 SE | 146 9.2 S | 178 259 431 1.8 7.5 - 6.9 0.00
8/29/26 - 1450 98.8 96.9 25 56.5 0.00 90.9 1,011.7 4.6 SW | 224 7.4 WSW | 237 259 461 3.3 7.2 - 6.9 0.00
8/29/26 - 1440 98.5 96.4 26 56.3 0.00 90.7 1,011.9 4.6 SSW | 211 7.9 SSW | 196 259 397 3.0 6.7 - 6.9 0.00
8/29/26 - 1430 98.5 96.9 26 56.9 0.00 90.6 1,012.0 3.8 SSW | 202 7.6 SW | 224 258 394 2.3 6.2 - 6.9 0.00
8/29/26 - 1420 98.9 97.8 26 57.5 0.00 90.3 1,012.1 3.4 SW | 216 7.3 SW | 228 259 358 2.3 5.8 - 6.9 0.00
8/29/26 - 1410 99.4 97.7 26 57.7 0.00 90.3 1,012.2 3.3 SSW | 197 9.9 SSW | 213 259 340 2.3 5.4 - 6.9 0.00
8/29/26 - 1400 98.8 97.7 26 57.7 0.00 90.0 1,012.3 3.3 SSW | 195 6.9 SSW | 207 259 584 2.3 5.0 - 6.9 0.00
8/29/26 - 1350 98.9 96.7 26 57.0 0.00 89.6 1,012.4 3.4 S | 179 6.8 SSW | 199 259 515 2.0 4.6 - 6.9 0.00
8/29/26 - 1340 99.8 97.2 26 57.2 0.00 89.5 1,012.4 4.4 S | 183 9.4 SE | 126 259 540 2.6 4.3 - 6.9 0.00
8/29/26 - 1330 101.9 99.7 24 58.0 0.00 89.4 1,012.5 2.8 SSE | 156 6.9 S | 186 259 493 2.2 3.9 - 6.9 0.00
8/29/26 - 1320 101.5 100.4 26 59.8 0.00 89.4 1,012.6 1.5 NNE | 22 4.4 N | 5 259 499 0.7 3.5 - 6.9 0.00
8/29/26 - 1310 100.5 97.4 28 59.8 0.00 89.5 1,012.8 1.3 E | 86 4.5 S | 181 259 406 0.8 3.4 - 6.9 0.00
8/29/26 - 1300 99.8 98.8 28 60.8 0.00 89.3 1,012.8 1.8 NE | 35 4.6 NE | 35 259 296 0.8 3.3 - 6.9 0.00
8/29/26 - 1250 99.5 98.2 30 61.8 0.00 89.2 1,012.9 1.7 NNE | 23 4.1 N | 6 259 459 0.5 3.1 - 6.9 0.00
8/29/26 - 1240 98.6 96.8 31 61.7 0.00 89.4 1,013.0 1.6 E | 86 5.0 SSE | 163 259 341 0.8 3.0 - 6.9 0.00
8/29/26 - 1230 99.6 97.7 30 62.2 0.00 89.3 1,013.1 2.2 E | 87 6.9 ENE | 69 259 488 1.7 2.9 - 6.9 0.00
8/29/26 - 1220 99.1 98.1 31 62.5 0.00 89.4 1,013.2 1.9 NE | 44 4.4 ENE | 70 259 509 1.1 2.6 - 6.9 0.00
8/29/26 - 1210 98.7 96.4 32 62.7 0.00 89.2 1,013.4 1.6 NE | 52 4.3 E | 98 259 519 1.0 2.4 - 6.9 0.00
8/29/26 - 1200 96.7 95.1 34 62.9 0.00 89.2 1,013.5 1.9 ENE | 67 6.7 ESE | 106 259 474 1.4 2.3 - 6.9 0.00
8/29/26 - 1150 95.8 94.9 35 63.1 0.00 89.1 1,013.6 2.5 NE | 34 6.2 E | 86 259 519 1.1 2.0 - 6.9 0.00
8/29/26 - 1140 95.3 94.0 35 63.0 0.00 89.0 1,013.8 2.1 NE | 55 5.0 ENE | 78 259 484 1.1 1.9 - 6.9 0.00
8/29/26 - 1130 94.4 93.4 35 62.0 0.00 88.6 1,013.9 2.2 NE | 52 5.0 E | 88 259 452 1.3 1.7 - 6.9 0.00
8/29/26 - 1120 93.6 92.6 36 62.4 0.00 88.7 1,013.9 2.3 ENE | 59 6.0 ENE | 70 260 395 1.3 1.4 - 6.9 0.00
8/29/26 - 1110 94.0 92.8 36 62.3 0.00 88.5 1,013.9 2.5 ENE | 59 5.4 E | 99 259 450 1.0 1.2 - 6.9 0.00
8/29/26 - 1100 94.0 92.1 36 62.1 0.00 88.6 1,013.9 1.6 ENE | 64 4.8 E | 81 259 453 1.3 1.1 - 6.9 0.00
8/29/26 - 1050 92.6 91.2 38 62.9 0.00 88.5 1,014.0 1.1 NE | 34 3.7 E | 91 260 304 0.6 0.9 - 6.9 0.00
8/29/26 - 1040 91.9 90.9 39 63.2 0.00 88.5 1,014.1 2.0 ENE | 59 5.5 ENE | 71 260 433 1.0 0.8 - 6.9 0.00
8/29/26 - 1030 91.1 89.3 41 63.2 0.00 88.6 1,014.1 1.3 ENE | 57 3.9 N | 5 260 431 0.5 0.6 - 6.9 0.00
8/29/26 - 1020 89.9 89.4 41 63.0 0.00 88.5 1,014.1 2.0 NE | 50 4.3 SE | 146 260 387 0.8 0.5 - 6.9 0.00
8/29/26 - 1010 89.5 88.6 42 62.9 0.00 88.9 1,014.1 1.4 NE | 47 5.0 ENE | 74 260 373 0.6 0.4 - 6.9 0.00
8/29/26 - 1000 89.0 88.0 42 62.8 0.00 89.2 1,014.1 0.8 NE | 49 2.3 NE | 36 260 300 0.4 0.2 - 6.9 0.00
8/29/26 - 0950 88.3 86.8 44 62.6 0.00 89.5 1,014.2 0.8 NE | 55 2.8 E | 88 260 290 0.3 0.2 - 6.9 0.00
8/29/26 - 0940 87.6 86.7 44 62.6 0.00 89.9 1,014.2 1.0 NE | 36 4.6 N | 10 260 312 0.2 0.1 - 6.9 0.00
8/29/26 - 0930 86.7 85.4 45 62.4 0.00 90.1 1,014.1 0.8 NNE | 30 2.7 N | 353 260 296 0.2 0.1 - 6.9 0.00
8/29/26 - 0920 85.4 84.6 46 62.2 0.00 90.4 1,014.2 0.8 N | 10 2.8 NNE | 28 260 273 0.1 0.1 - 6.9 0.00
8/29/26 - 0910 86.8 85.4 45 62.6 0.00 90.4 1,014.2 0.5 NE | 35 3.0 N | 10 260 252 0.1 0.1 - 6.9 0.00
8/29/26 - 0900 86.4 84.6 47 62.8 0.00 90.8 1,014.2 0.2 NE | 48 1.7 E | 90 261 226 0.0 0.0 - 6.9 0.00
8/29/26 - 0850 84.8 82.8 49 62.6 0.00 90.6 1,014.2 0.2 SSE | 152 1.9 SE | 130 261 212 0.0 0.0 - 6.9 0.00
8/29/26 - 0840 83.3 82.4 51 62.6 0.00 91.1 1,014.1 0.4 NE | 46 1.6 NE | 53 262 194 0.0 0.0 - 6.9 0.00
8/29/26 - 0830 84.0 81.5 50 62.7 0.00 91.1 1,014.1 0.1 NE | 39 0.8 NE | 37 262 126 0.0 0.0 - 6.9 0.00
8/29/26 - 0820 81.7 80.5 53 62.7 0.00 91.0 1,014.1 0.1 NNE | 14 1.8 NNE | 21 262 121 0.0 0.0 - 6.9 0.00
8/29/26 - 0810 80.6 79.4 55 62.5 0.00 90.9 1,014.1 0.2 ESE | 111 1.2 ESE | 110 264 110 0.0 0.0 - 6.9 0.00
8/29/26 - 0800 79.5 76.8 58 62.1 0.00 90.9 1,014.1 0.2 ENE | 61 1.9 E | 82 264 99 0.1 0.0 - 6.9 0.00
8/29/26 - 0750 76.7 74.8 62 61.8 0.00 90.7 1,014.1 0.0 NE | 52 0.1 ENE | 66 265 -19 0.0 0.0 - 6.9 0.00
8/29/26 - 0740 75.0 73.1 67 62.2 0.00 90.7 1,014.1 0.0 N | 0 0.0 SE | 142 266 -23 0.0 0.0 - 6.9 0.00
8/29/26 - 0730 73.0 71.7 70 61.9 0.00 90.6 1,014.0 0.0 N | 0 0.0 S | 179 266 -13 0.0 0.0 - 6.9 0.00
8/29/26 - 0720 71.8 71.1 71 61.6 0.00 90.7 1,013.9 0.0 N | 0 0.0 SSW | 204 266 -26 0.0 0.0 - 6.9 0.00
8/29/26 - 0710 71.2 70.9 72 61.5 0.00 90.6 1,013.8 0.0 SE | 138 0.2 SE | 138 266 -30 0.0 0.0 - 6.9 0.00
8/29/26 - 0700 71.1 70.8 72 61.5 0.00 90.5 1,013.7 0.0 N | 0 0.0 SSE | 152 266 -34 0.0 0.0 - 6.9 0.00
8/29/26 - 0650 71.2 70.7 73 61.7 0.00 90.6 1,013.7 0.0 N | 0 0.0 SSE | 152 266 -37 0.0 0.0 - 6.9 0.00
8/29/26 - 0640 71.0 70.7 72 61.5 0.00 90.7 1,013.6 0.0 N | 0 0.0 SSE | 152 266 -39 0.0 0.0 - 6.9 0.00
8/29/26 - 0630 71.2 70.8 72 61.5 0.00 90.7 1,013.6 0.0 N | 0 0.0 SSE | 152 266 -41 0.0 0.0 - 6.9 0.00
8/29/26 - 0620 71.2 70.7 73 61.7 0.00 90.8 1,013.5 0.0 N | 0 0.0 S | 180 266 -42 0.0 0.0 - 6.9 0.00
8/29/26 - 0610 70.9 70.5 73 61.6 0.00 90.9 1,013.4 0.0 N | 0 0.0 SSE | 160 266 -45 0.0 0.0 - 6.9 0.00
8/29/26 - 0600 71.1 70.7 72 61.6 0.00 90.9 1,013.3 0.0 N | 0 0.0 SSE | 160 266 -45 0.0 0.0 - 6.9 0.00
8/29/26 - 0550 71.4 71.0 72 61.6 0.00 91.0 1,013.3 0.0 N | 0 0.0 WSW | 239 266 -46 0.0 0.0 - 6.9 0.00
8/29/26 - 0540 71.5 71.1 72 61.6 0.00 90.9 1,013.3 0.0 N | 0 0.0 SSE | 153 266 -46 0.0 0.0 - 6.9 0.00
8/29/26 - 0530 71.9 71.4 70 61.6 0.00 90.8 1,013.1 0.0 N | 0 0.0 SSE | 167 266 -47 0.0 0.0 - 6.9 0.00
8/29/26 - 0520 72.3 71.8 70 61.7 0.00 90.7 1,013.1 0.0 SE | 143 0.2 SE | 143 266 -48 0.0 0.0 - 6.9 0.00
8/29/26 - 0510 72.5 72.2 69 61.7 0.00 90.6 1,013.1 0.1 SE | 140 1.2 SSE | 148 266 -49 0.0 0.0 - 6.9 0.00
8/29/26 - 0500 72.4 72.2 69 61.8 0.00 90.6 1,013.1 0.0 SSE | 147 0.6 SE | 146 266 -48 0.0 0.0 - 6.9 0.00
8/29/26 - 0450 72.5 72.2 69 61.8 0.00 90.5 1,013.1 0.0 SSE | 154 0.5 SSE | 154 265 -48 0.0 0.0 - 6.9 0.00
8/29/26 - 0440 72.6 72.2 68 61.3 0.00 90.4 1,013.0 0.0 N | 0 0.0 SSE | 151 266 -49 0.0 0.0 - 6.9 0.00
8/29/26 - 0430 72.9 72.4 68 61.5 0.00 90.6 1,013.0 0.0 SE | 146 0.5 SE | 142 266 -49 0.0 0.0 - 6.9 0.00
8/29/26 - 0420 73.4 72.6 66 61.0 0.00 90.9 1,013.0 0.0 N | 0 0.0 SE | 142 265 -50 0.0 0.0 - 6.9 0.00
8/29/26 - 0410 73.5 73.2 66 61.3 0.00 91.4 1,013.0 0.0 N | 0 0.0 SW | 232 265 -49 0.0 0.0 - 6.9 0.00
8/29/26 - 0400 73.6 73.2 65 61.1 0.00 91.6 1,012.9 0.0 S | 181 0.1 S | 181 265 -50 0.0 0.0 - 6.9 0.00
8/29/26 - 0350 73.7 73.3 66 61.3 0.00 91.9 1,012.8 0.0 SSE | 168 0.4 S | 174 264 -49 0.0 0.0 - 6.9 0.00
8/29/26 - 0340 74.2 73.6 65 61.3 0.00 92.3 1,012.8 0.0 SSW | 198 0.3 SSW | 198 264 -49 0.0 0.0 - 6.9 0.00
8/29/26 - 0330 74.5 74.0 64 61.3 0.00 92.5 1,012.8 0.0 N | 0 0.0 SSW | 204 264 -50 0.0 0.0 - 6.9 0.00
8/29/26 - 0320 74.7 74.2 64 61.4 0.00 91.9 1,012.7 0.1 SSW | 201 1.1 SSW | 200 264 -50 0.0 0.0 - 6.9 0.00
8/29/26 - 0310 74.7 74.1 62 60.8 0.00 91.0 1,012.7 0.0 SW | 226 0.4 SW | 226 264 -50 0.0 0.0 - 6.9 0.00
8/29/26 - 0300 75.3 74.7 61 60.6 0.00 90.9 1,012.7 0.0 N | 0 0.0 SSW | 193 264 -51 0.0 0.0 - 6.9 0.00
8/29/26 - 0250 75.5 75.2 61 61.0 0.00 91.2 1,012.8 0.0 N | 0 0.0 SSW | 193 264 -49 0.0 0.0 - 6.9 0.00
8/29/26 - 0240 75.5 75.2 61 60.8 0.00 91.4 1,012.8 0.2 SSW | 207 0.9 SSW | 201 264 -47 0.0 0.0 - 6.9 0.00
8/29/26 - 0230 76.0 75.3 59 60.5 0.00 91.8 1,012.7 0.2 SSW | 207 1.1 SSW | 192 264 -50 0.0 0.0 - 6.9 0.00
8/29/26 - 0220 76.1 75.8 59 60.5 0.00 92.1 1,012.7 0.0 N | 0 0.0 ESE | 104 264 -51 0.0 0.0 - 6.9 0.00
8/29/26 - 0210 76.4 76.0 57 60.1 0.00 92.5 1,012.8 0.0 N | 0 0.0 SSE | 148 263 -52 0.0 0.0 - 6.9 0.00
8/29/26 - 0200 76.6 76.3 57 60.1 0.00 92.8 1,012.9 0.2 SW | 223 1.3 SW | 220 263 -51 0.0 0.0 - 6.9 0.00
8/29/26 - 0150 77.3 76.3 56 59.9 0.00 92.9 1,012.9 0.1 SSW | 213 1.2 SW | 223 263 -51 0.0 0.0 - 6.9 0.00
8/29/26 - 0140 77.7 77.2 55 60.1 0.00 93.1 1,012.9 0.0 N | 0 0.0 S | 176 263 -50 0.0 0.0 - 6.9 0.00
8/29/26 - 0130 77.8 77.4 54 59.9 0.00 93.2 1,012.8 0.0 N | 0 0.0 SSE | 152 263 -50 0.0 0.0 - 6.9 0.00
8/29/26 - 0120 78.0 77.6 54 59.9 0.00 93.1 1,012.8 0.0 SE | 145 0.6 SSE | 147 262 -50 0.0 0.0 - 6.9 0.00
8/29/26 - 0110 77.6 77.2 52 58.4 0.00 93.0 1,012.8 0.0 WSW | 258 0.5 WSW | 258 262 -50 0.0 0.0 - 6.9 0.00
8/29/26 - 0100 77.7 77.4 51 57.9 0.00 92.9 1,012.8 0.0 SE | 142 0.9 SE | 131 262 -49 0.0 22.8 - 6.9 0.00
8/29/26 - 0050 77.6 76.9 49 56.8 0.00 92.8 1,012.8 0.2 SW | 224 1.2 SW | 228 262 -50 0.0 22.8 - 6.9 0.00
8/29/26 - 0040 77.7 76.9 48 56.3 0.00 92.8 1,012.8 0.1 SW | 228 1.1 SW | 228 262 -50 0.0 22.8 - 6.9 0.00
8/29/26 - 0030 78.1 77.6 47 56.2 0.00 92.7 1,012.8 0.0 N | 0 0.0 SE | 135 262 -51 0.0 22.8 - 6.9 0.00
8/29/26 - 0020 78.4 78.0 47 56.2 0.00 93.2 1,012.8 0.0 N | 0 0.0 SE | 135 262 -51 0.0 22.8 - 6.9 0.00
8/29/26 - 0010 78.5 78.1 46 55.9 0.00 93.5 1,012.7 0.0 N | 0 0.0 SE | 135 262 -52 0.0 22.8 - 6.9 0.00
8/29/26 - 0000 78.9 78.3 46 55.9 0.00 93.4 1,012.7 0.0 N | 0 0.0 SE | 135 262 -52 0.0 22.8 - 6.9 0.00
8/28/26 - 2350 79.4 78.8 44 55.6 0.00 93.3 1,012.5 0.0 SE | 135 0.1 SE | 135 262 -52 0.0 22.8 - 6.9 0.00
8/28/26 - 2340 79.6 79.2 44 55.4 0.00 93.1 1,012.4 0.0 N | 0 0.0 SE | 135 262 -52 0.0 22.8 - 6.9 0.00
8/28/26 - 2330 79.7 79.4 43 55.2 0.00 92.9 1,012.4 0.4 SW | 234 1.8 WSW | 245 261 -53 0.0 22.8 - 6.9 0.00
8/28/26 - 2320 80.0 79.4 43 55.3 0.00 92.8 1,012.3 0.1 SSW | 192 0.8 S | 184 261 -55 0.0 22.8 - 6.9 0.00
8/28/26 - 2310 80.0 79.6 42 54.7 0.00 92.8 1,012.3 0.2 SSE | 159 1.9 SE | 136 261 -56 0.0 22.8 - 6.9 0.00
8/28/26 - 2300 80.7 79.6 41 54.4 0.00 92.8 1,012.3 1.7 SW | 216 2.6 SW | 221 261 -55 0.0 22.8 - 6.9 0.00
8/28/26 - 2250 82.1 80.9 39 54.6 0.00 92.7 1,012.2 0.0 SSW | 200 1.1 SSW | 200 261 -57 0.0 22.8 - 6.9 0.00
8/28/26 - 2240 82.9 82.1 38 54.5 0.00 92.7 1,012.2 0.0 SSE | 168 0.1 SSE | 168 261 -57 0.0 22.8 - 6.9 0.00
8/28/26 - 2230 84.0 82.9 37 54.4 0.00 92.7 1,012.2 0.0 NNE | 13 0.1 NNE | 13 260 -59 0.0 22.8 - 6.9 0.00
8/28/26 - 2220 84.8 83.8 36 54.4 0.00 92.8 1,012.2 0.0 SSW | 194 0.7 SSW | 195 260 -59 0.0 22.8 - 6.9 0.00
8/28/26 - 2210 85.8 84.7 35 54.3 0.00 92.6 1,012.2 1.3 SW | 228 3.3 SW | 232 260 -60 0.4 22.8 - 6.9 0.00
8/28/26 - 2200 86.0 85.1 34 54.4 0.00 92.7 1,012.3 1.2 WSW | 240 3.5 SW | 233 260 -62 0.5 22.8 - 6.9 0.00
8/28/26 - 2150 86.1 85.6 34 54.7 0.00 92.7 1,012.3 0.2 NE | 42 1.8 N | 0 260 -63 0.0 22.7 - 6.9 0.00
8/28/26 - 2140 86.2 85.9 34 54.4 0.00 92.7 1,012.3 0.9 SSE | 165 3.9 SSE | 161 260 -63 0.4 22.7 - 6.9 0.00
8/28/26 - 2130 86.5 85.7 34 54.2 0.00 92.8 1,012.4 2.1 SSW | 201 3.4 S | 191 260 -62 0.4 22.6 - 6.9 0.00
8/28/26 - 2120 87.2 86.4 33 54.1 0.00 92.8 1,012.4 0.7 SW | 214 2.0 SSW | 206 260 -64 0.0 22.6 - 6.9 0.00
8/28/26 - 2110 87.3 86.9 32 54.0 0.00 92.8 1,012.2 1.9 SW | 218 4.5 SW | 220 260 -65 0.6 22.6 - 6.9 0.00
8/28/26 - 2100 87.8 87.1 32 54.1 0.00 92.6 1,012.1 1.8 SSW | 206 3.6 SSW | 207 260 -66 0.3 22.5 - 6.9 0.00
8/28/26 - 2050 88.1 87.6 32 54.0 0.00 92.6 1,011.9 1.6 SSW | 212 4.3 SSW | 193 260 -67 0.6 22.4 - 7.0 0.00
8/28/26 - 2040 88.9 87.9 31 54.0 0.00 92.6 1,011.8 3.7 SW | 221 6.3 SSW | 205 260 -67 1.6 22.3 - 7.0 0.00
8/28/26 - 2030 89.0 88.6 31 54.0 0.00 92.7 1,011.8 5.0 WSW | 242 8.0 W | 259 260 -68 2.7 22.0 - 7.0 0.00
8/28/26 - 2020 89.4 88.8 30 54.1 0.00 92.5 1,011.7 3.7 SW | 229 6.7 WSW | 256 260 -69 2.2 21.6 - 7.0 0.00
8/28/26 - 2010 89.9 89.2 30 54.4 0.00 92.1 1,011.6 3.2 SW | 234 8.9 SW | 233 260 -70 1.3 21.2 - 7.0 0.00
8/28/26 - 2000 90.4 89.7 30 54.5 0.00 91.9 1,011.6 2.6 SW | 230 7.2 WSW | 253 260 -72 1.3 21.0 - 7.0 0.00
8/28/26 - 1950 90.8 90.2 29 54.3 0.00 91.8 1,011.6 3.7 SW | 235 6.4 W | 265 260 -73 1.6 20.8 - 7.0 0.00
8/28/26 - 1940 91.5 90.8 29 54.0 0.00 91.8 1,011.6 3.5 WSW | 238 8.0 SW | 230 260 -73 1.9 20.5 - 7.0 0.00
8/28/26 - 1930 91.9 91.2 28 53.9 0.00 91.7 1,011.5 3.7 WSW | 246 7.1 WSW | 256 260 -73 2.1 20.2 - 7.0 0.00
8/28/26 - 1920 92.3 91.7 28 54.0 0.00 92.2 1,011.5 3.9 WSW | 241 6.1 SW | 233 260 -71 2.1 19.8 - 7.0 0.00
8/28/26 - 1910 93.1 92.2 27 53.7 0.00 92.5 1,011.5 4.4 WSW | 240 7.9 SW | 232 259 -64 2.5 19.5 - 7.0 0.00
8/28/26 - 1900 94.7 93.0 25 53.0 0.00 92.6 1,011.5 5.2 WSW | 238 10.1 SW | 236 259 -51 3.4 19.1 - 7.0 0.00
8/28/26 - 1850 95.8 94.4 24 52.7 0.00 92.8 1,011.6 4.3 WSW | 244 7.7 SSW | 209 259 -36 2.6 18.5 - 7.0 0.00
8/28/26 - 1840 95.8 95.4 23 52.4 0.00 92.9 1,011.6 3.4 WSW | 250 7.2 NW | 322 259 -15 2.3 18.1 - 7.0 0.00
8/28/26 - 1830 96.6 95.5 23 52.3 0.00 93.0 1,011.6 4.2 W | 266 9.3 WNW | 291 259 5 2.8 17.7 - 7.0 0.00
8/28/26 - 1820 98.2 96.5 23 53.0 0.00 92.9 1,011.7 3.1 WSW | 255 7.4 SW | 231 259 31 2.4 17.2 - 7.0 0.00
8/28/26 - 1810 98.0 96.8 23 53.3 0.00 92.9 1,011.6 2.2 WNW | 282 6.8 WSW | 252 259 61 1.9 16.8 - 7.0 0.00
8/28/26 - 1800 97.8 96.9 23 53.2 0.00 92.6 1,011.5 4.1 WSW | 245 6.6 SW | 222 259 81 2.6 16.5 - 7.0 0.00
8/28/26 - 1750 97.6 96.1 23 52.4 0.00 92.9 1,011.5 3.3 SW | 236 6.9 SW | 227 259 55 2.2 16.1 - 7.0 0.00
8/28/26 - 1740 97.4 96.7 22 51.7 0.00 92.8 1,011.5 3.5 SW | 224 6.1 SW | 217 259 17 2.3 15.7 - 7.0 0.00
8/28/26 - 1730 98.3 96.6 21 51.6 0.00 92.8 1,011.5 4.9 SW | 225 7.5 SW | 218 259 1 3.1 15.4 - 7.0 0.00
8/28/26 - 1720 99.3 98.3 21 52.1 0.00 92.7 1,011.4 4.9 SW | 236 8.9 WSW | 252 258 8 3.0 14.8 - 7.0 0.00
8/28/26 - 1710 101.3 99.3 20 51.8 0.00 92.5 1,011.3 5.6 SW | 233 10.2 WSW | 237 258 83 3.6 14.4 - 7.0 0.00
8/28/26 - 1700 102.8 100.9 19 52.0 0.00 92.3 1,011.2 5.0 WSW | 239 7.7 W | 260 258 214 3.4 13.8 - 7.0 0.00
8/28/26 - 1650 103.5 102.4 19 52.3 0.00 91.9 1,011.2 3.3 W | 280 8.5 WNW | 292 258 239 3.0 13.2 - 7.0 0.00
8/28/26 - 1640 103.5 102.1 19 52.3 0.00 91.7 1,011.3 4.3 W | 274 9.1 WSW | 245 258 254 3.1 12.7 - 7.0 0.00
8/28/26 - 1630 103.9 103.2 19 53.1 0.00 91.5 1,011.3 2.6 W | 280 9.3 SW | 234 258 212 2.3 12.2 - 7.0 0.00
8/28/26 - 1620 103.7 102.5 19 53.3 0.00 91.2 1,011.3 3.0 WNW | 282 10.3 WSW | 258 258 287 2.4 11.8 - 7.0 0.00
8/28/26 - 1610 104.3 103.4 19 53.7 0.00 91.1 1,011.4 3.1 WNW | 284 10.8 W | 280 258 285 2.7 11.4 - 7.0 0.00
8/28/26 - 1600 104.4 102.6 20 54.0 0.00 90.5 1,011.5 2.6 WNW | 296 8.5 W | 271 258 343 2.4 10.9 - 7.0 0.00
8/28/26 - 1550 104.2 103.4 19 53.8 0.00 90.5 1,011.6 1.8 WNW | 295 9.4 SW | 229 258 330 1.9 10.5 - 7.0 0.00
8/28/26 - 1540 104.8 103.4 19 53.4 0.00 90.3 1,011.7 3.7 WNW | 282 9.1 W | 270 258 268 3.1 10.2 - 7.0 0.00
8/28/26 - 1530 105.1 103.7 19 53.6 0.00 90.3 1,011.7 3.3 W | 278 10.0 W | 277 258 326 2.7 9.7 - 7.0 0.00
8/28/26 - 1520 104.3 102.3 20 54.6 0.00 90.0 1,011.7 3.5 WNW | 286 11.2 NNW | 327 258 343 3.2 9.2 - 7.0 0.00
8/28/26 - 1510 105.4 103.2 20 54.4 0.00 90.1 1,011.8 6.5 WSW | 250 13.9 WSW | 252 258 251 4.6 8.7 - 7.0 0.00
8/28/26 - 1500 107.0 104.9 19 54.8 0.00 90.2 1,011.9 3.8 WSW | 258 8.9 SSW | 204 258 415 3.1 7.9 - 7.1 0.00
8/28/26 - 1450 105.4 103.7 19 54.3 0.00 90.1 1,012.0 5.0 W | 263 11.5 WSW | 242 258 496 3.6 7.4 - 7.1 0.00
8/28/26 - 1440 105.1 103.4 20 55.6 0.00 89.9 1,012.1 5.2 WSW | 255 11.8 SW | 231 258 312 3.8 6.8 - 7.1 0.00
8/28/26 - 1430 105.3 104.5 19 54.8 0.00 89.9 1,012.1 3.9 WSW | 257 10.0 W | 281 258 289 2.7 6.2 - 7.1 0.00
8/28/26 - 1420 105.0 103.7 19 54.3 0.00 89.7 1,012.1 4.4 S | 191 9.2 SSW | 208 258 471 2.8 5.7 - 7.1 0.00
8/28/26 - 1410 105.8 104.3 18 53.1 0.00 89.5 1,012.2 4.8 SSW | 212 9.0 SW | 234 258 475 3.2 5.2 - 7.1 0.00
8/28/26 - 1400 105.6 104.0 17 51.7 0.00 89.3 1,012.3 4.9 SSW | 208 9.0 WSW | 244 258 424 3.0 4.7 - 7.1 0.00
8/28/26 - 1350 106.2 104.3 17 52.0 0.00 89.1 1,012.4 3.5 WSW | 242 7.9 WSW | 253 257 508 2.7 4.2 - 7.1 0.00
8/28/26 - 1340 105.3 104.3 20 55.4 0.00 89.2 1,012.5 2.9 S | 185 6.8 WSW | 249 258 424 1.7 3.8 - 7.1 0.00
8/28/26 - 1330 105.4 104.0 21 56.2 0.00 89.0 1,012.6 1.7 S | 180 7.5 SSE | 150 258 332 0.7 3.5 - 7.1 0.00
8/28/26 - 1320 104.7 103.5 21 56.3 0.00 88.5 1,012.7 3.2 S | 177 7.8 SW | 218 258 525 2.0 3.3 - 7.1 0.00
8/28/26 - 1310 105.4 103.7 22 57.6 0.00 88.7 1,012.8 2.9 SW | 224 8.3 SW | 220 258 538 1.8 3.0 - 7.1 0.00
8/28/26 - 1300 104.8 103.2 24 60.4 0.00 88.4 1,012.9 1.8 ESE | 110 4.3 E | 88 258 440 0.9 2.7 - 7.1 0.00
8/28/26 - 1250 105.8 103.1 24 60.0 0.00 88.3 1,013.0 2.3 ESE | 110 5.6 SE | 143 259 334 0.8 2.6 - 7.1 0.00
8/28/26 - 1240 105.8 103.7 22 58.4 0.00 88.4 1,012.9 1.8 NE | 42 4.4 E | 98 258 452 0.5 2.4 - 7.1 0.00
8/28/26 - 1230 105.2 101.7 22 57.1 0.00 88.2 1,013.1 1.6 ESE | 104 5.0 SSE | 155 258 540 1.0 2.3 - 7.1 0.00
8/28/26 - 1220 102.6 101.1 22 56.0 0.00 88.4 1,013.3 1.7 WSW | 245 3.2 WNW | 291 258 290 1.0 2.2 - 7.1 0.00
8/28/26 - 1210 103.7 102.5 23 57.8 0.00 88.6 1,013.3 2.4 ENE | 74 5.9 ENE | 63 258 485 1.7 2.0 - 7.1 0.00
8/28/26 - 1200 104.3 103.3 22 57.6 0.00 88.6 1,013.4 1.5 NE | 48 4.3 ENE | 57 258 451 0.9 1.7 - 7.1 0.00
8/28/26 - 1150 103.2 101.5 22 56.7 0.00 89.0 1,013.5 0.8 NNE | 26 5.6 NE | 43 258 452 0.6 1.6 - 7.1 0.00
8/28/26 - 1140 102.1 101.4 23 57.4 0.00 88.9 1,013.6 1.4 ESE | 117 4.7 SE | 140 258 432 0.8 1.5 - 7.1 0.00
8/28/26 - 1130 102.0 98.8 24 57.3 0.00 89.2 1,013.7 1.5 ENE | 68 3.6 NE | 48 258 478 0.9 1.3 - 7.1 0.00
8/28/26 - 1120 100.4 99.1 25 57.4 0.00 89.6 1,013.8 2.0 ESE | 112 4.2 ENE | 71 258 431 1.1 1.2 - 7.1 0.00
8/28/26 - 1110 100.1 98.3 26 58.7 0.00 89.4 1,013.8 1.0 ENE | 59 3.7 E | 88 259 420 0.6 1.0 - 7.1 0.00
8/28/26 - 1100 98.8 97.8 28 59.2 0.00 89.3 1,013.8 1.0 N | 360 4.6 NNE | 26 258 430 0.6 0.9 - 7.1 0.00
8/28/26 - 1050 98.6 96.6 29 60.1 0.00 89.4 1,013.8 0.9 NE | 47 3.3 NE | 48 258 419 0.6 0.8 - 7.1 0.00
8/28/26 - 1040 97.7 95.8 30 60.6 0.00 89.3 1,013.9 1.1 ENE | 60 3.4 NE | 41 259 407 0.4 0.7 - 7.1 0.00
8/28/26 - 1030 95.5 94.0 33 60.9 0.00 89.2 1,013.9 1.0 NE | 39 2.8 NNE | 22 260 384 0.6 0.7 - 7.1 0.00
8/28/26 - 1020 94.5 93.6 36 63.2 0.00 89.2 1,013.8 0.9 NE | 34 2.8 NNW | 348 260 319 0.3 0.6 - 7.1 0.00
8/28/26 - 1010 93.7 92.0 38 63.8 0.00 89.8 1,013.8 0.9 ENE | 62 3.1 E | 87 260 324 0.4 0.5 - 7.1 0.00
8/28/26 - 1000 92.0 90.9 41 64.3 0.00 89.8 1,013.8 0.8 SW | 236 3.1 SW | 229 260 345 0.8 0.4 - 7.1 0.00
8/28/26 - 0950 92.0 90.1 43 65.3 0.00 89.6 1,013.7 0.2 NNE | 22 1.2 WSW | 257 260 309 0.2 0.3 - 7.1 0.00
8/28/26 - 0940 90.2 88.4 45 65.3 0.00 89.6 1,013.7 0.7 N | 8 1.9 N | 9 260 314 0.4 0.3 - 7.1 0.00
8/28/26 - 0930 89.1 87.9 47 65.3 0.00 89.4 1,013.6 0.3 NNW | 334 2.9 NNE | 25 260 300 0.3 0.2 - 7.1 0.00
8/28/26 - 0920 87.9 86.2 48 65.2 0.00 89.3 1,013.6 0.2 E | 88 1.0 SSE | 154 260 258 0.3 0.2 - 7.1 0.00
8/28/26 - 0910 86.7 85.2 50 65.5 0.00 89.5 1,013.6 0.5 NE | 48 2.1 NE | 44 261 248 0.3 0.1 - 7.1 0.00
8/28/26 - 0900 86.0 84.7 51 65.5 0.00 89.5 1,013.6 0.9 NE | 39 2.1 NNE | 26 261 224 0.1 0.1 - 7.1 0.00
8/28/26 - 0850 86.0 84.3 51 65.2 0.00 89.6 1,013.5 0.4 NNE | 26 2.6 NNE | 14 261 209 0.1 0.0 - 7.1 0.00
8/28/26 - 0840 84.3 82.2 55 65.0 0.00 89.6 1,013.6 0.1 N | 4 1.3 NNE | 15 261 194 0.0 0.0 - 7.1 0.00
8/28/26 - 0830 82.8 82.2 55 64.7 0.00 89.8 1,013.7 0.2 NNW | 343 1.7 N | 11 261 26 0.0 0.0 - 7.1 0.00
8/28/26 - 0820 83.5 82.4 54 64.8 0.00 89.9 1,013.8 0.8 ESE | 121 3.2 SE | 125 262 62 0.1 0.0 - 7.1 0.00
8/28/26 - 0810 82.5 81.1 57 64.8 0.00 90.1 1,013.7 0.4 ESE | 114 2.0 E | 98 264 105 0.0 0.0 - 7.1 0.00
8/28/26 - 0800 81.0 78.9 58 63.9 0.00 90.1 1,013.7 0.4 E | 100 1.4 ESE | 112 264 65 0.0 0.0 - 7.2 0.00
8/28/26 - 0750 79.0 77.7 59 62.9 0.00 90.0 1,013.7 0.3 E | 85 1.8 NE | 52 264 -21 0.0 0.0 - 7.2 0.00
8/28/26 - 0740 77.7 76.1 59 61.3 0.00 89.7 1,013.7 0.0 SW | 216 0.5 WSW | 240 264 -19 0.0 0.0 - 7.2 0.00
8/28/26 - 0730 76.1 74.5 61 60.7 0.00 90.1 1,013.6 0.0 N | 0 0.0 WSW | 240 264 -3 0.0 0.0 - 7.2 0.00
8/28/26 - 0720 74.6 73.7 63 60.6 0.00 90.4 1,013.6 0.0 N | 0 0.0 WSW | 240 264 -19 0.0 0.0 - 7.2 0.00
8/28/26 - 0710 73.9 72.8 63 60.2 0.00 90.7 1,013.5 0.1 E | 93 0.7 E | 97 264 -22 0.0 0.0 - 7.2 0.00
8/28/26 - 0700 72.9 72.3 64 59.7 0.00 90.9 1,013.4 0.1 S | 181 0.9 S | 182 264 -26 0.0 0.0 - 7.2 0.00
8/28/26 - 0650 72.5 72.1 63 59.3 0.00 91.2 1,013.3 0.2 SE | 135 1.5 SE | 135 264 -32 0.0 0.0 - 7.2 0.00
8/28/26 - 0640 72.5 72.2 62 58.8 0.00 91.2 1,013.3 0.2 SE | 139 1.4 SE | 144 264 -41 0.0 0.0 - 7.2 0.00
8/28/26 - 0630 72.5 71.9 62 58.6 0.00 91.1 1,013.0 0.5 SW | 221 1.4 WSW | 246 264 -43 0.0 0.0 - 7.2 0.00
8/28/26 - 0620 72.9 72.3 61 58.2 0.00 91.2 1,012.8 0.2 SSE | 162 1.0 WSW | 254 264 -45 0.0 0.0 - 7.2 0.00
8/28/26 - 0610 73.5 72.9 61 58.9 0.00 91.1 1,012.7 0.2 WSW | 244 1.4 WSW | 250 264 -46 0.0 0.0 - 7.2 0.00
8/28/26 - 0600 73.7 73.3 60 58.8 0.00 91.0 1,012.5 0.0 N | 0 0.0 SSW | 205 264 -47 0.0 0.0 - 7.2 0.00
8/28/26 - 0550 73.9 73.5 60 58.8 0.00 90.9 1,012.5 0.2 SW | 219 1.2 SW | 223 264 -45 0.0 0.0 - 7.2 0.00
8/28/26 - 0540 73.9 73.3 60 58.8 0.00 90.8 1,012.5 0.4 SSW | 203 1.3 SSW | 212 264 -43 0.0 0.0 - 7.2 0.00
8/28/26 - 0530 74.4 73.7 58 58.2 0.00 90.7 1,012.4 0.3 ESE | 122 1.0 E | 86 264 -43 0.0 0.0 - 7.2 0.00
8/28/26 - 0520 74.6 74.1 57 58.1 0.00 90.8 1,012.4 0.0 SSE | 159 0.1 SSE | 159 264 -42 0.0 0.0 - 7.2 0.00
8/28/26 - 0510 74.6 74.2 55 57.4 0.00 90.7 1,012.3 0.6 S | 176 2.0 SE | 137 264 -43 0.0 0.0 - 7.2 0.00
8/28/26 - 0500 74.8 74.3 55 57.4 0.00 90.7 1,012.2 0.1 WSW | 258 1.0 WSW | 256 263 -43 0.0 0.0 - 7.2 0.00
8/28/26 - 0450 75.2 74.6 54 57.3 0.00 90.7 1,012.2 0.0 N | 0 0.0 SSE | 162 263 -42 0.0 0.0 - 7.2 0.00
8/28/26 - 0440 75.4 74.9 55 57.8 0.00 90.9 1,012.2 0.0 N | 0 0.0 SE | 139 263 -38 0.0 0.0 - 7.2 0.00
8/28/26 - 0430 75.5 75.2 54 57.5 0.00 90.9 1,012.2 0.0 ESE | 112 0.5 SE | 139 263 -38 0.0 0.0 - 7.2 0.00
8/28/26 - 0420 75.5 74.8 54 57.6 0.00 91.1 1,012.2 0.0 SSE | 148 0.5 S | 180 263 -37 0.0 0.0 - 7.2 0.00
8/28/26 - 0410 75.1 74.7 55 57.9 0.00 91.0 1,012.1 0.1 SE | 139 0.9 SE | 139 263 -33 0.0 0.0 - 7.2 0.00
8/28/26 - 0400 75.2 74.7 56 58.2 0.00 91.1 1,012.1 0.0 N | 0 0.0 SSE | 153 263 -32 0.0 0.0 - 7.2 0.00
8/28/26 - 0350 75.4 74.9 55 58.0 0.00 91.1 1,012.2 0.0 N | 0 0.0 SE | 139 263 -33 0.0 0.0 - 7.2 0.00
8/28/26 - 0340 75.3 75.0 54 57.6 0.00 91.1 1,012.2 0.0 SSE | 159 0.5 SSE | 150 263 -34 0.0 0.0 - 7.2 0.00
8/28/26 - 0330 75.5 75.0 54 57.5 0.00 90.9 1,012.2 0.0 S | 189 0.5 S | 189 263 -35 0.0 0.0 - 7.2 0.00
8/28/26 - 0320 75.3 74.9 54 57.4 0.00 90.8 1,012.1 0.0 S | 186 0.4 S | 182 263 -36 0.0 0.0 - 7.2 0.00
8/28/26 - 0310 75.4 75.1 53 57.1 0.00 90.9 1,012.1 0.0 N | 0 0.0 S | 191 263 -38 0.0 0.0 - 7.2 0.00
8/28/26 - 0300 75.5 75.0 54 57.5 0.00 90.7 1,012.1 0.1 SSW | 202 1.0 SSW | 212 263 -40 0.0 0.0 - 7.2 0.00
8/28/26 - 0250 75.6 75.3 55 57.9 0.00 90.7 1,012.1 0.1 SE | 140 0.7 SE | 132 263 -42 0.0 0.0 - 7.2 0.00
8/28/26 - 0240 75.8 75.3 56 58.6 0.00 90.6 1,012.1 0.0 N | 0 0.0 ESE | 123 263 -42 0.0 0.0 - 7.2 0.00
8/28/26 - 0230 76.0 75.5 58 60.0 0.00 90.6 1,012.1 0.0 SSE | 149 0.6 SSE | 149 264 -41 0.0 0.0 - 7.2 0.00
8/28/26 - 0220 76.0 75.6 59 60.3 0.00 90.9 1,012.1 0.0 S | 176 0.7 S | 177 264 -44 0.0 0.0 - 7.2 0.00
8/28/26 - 0210 76.4 75.8 59 60.6 0.00 91.3 1,012.1 0.2 SSE | 149 1.2 SSE | 148 264 -45 0.0 0.0 - 7.2 0.00
8/28/26 - 0200 76.6 75.9 58 60.4 0.00 91.6 1,012.2 0.2 SSW | 209 1.1 SSW | 208 264 -44 0.0 0.0 - 7.2 0.00
8/28/26 - 0150 76.7 76.3 57 60.1 0.00 92.1 1,012.2 0.0 SE | 146 0.6 SE | 145 263 -46 0.0 0.0 - 7.2 0.00
8/28/26 - 0140 77.0 76.6 56 60.1 0.00 92.5 1,012.2 0.1 SE | 143 0.7 SE | 141 263 -45 0.0 0.0 - 7.2 0.00
8/28/26 - 0130 77.4 76.8 55 59.8 0.00 92.6 1,012.3 0.1 S | 185 0.8 SSW | 195 263 -43 0.0 0.0 - 7.2 0.00
8/28/26 - 0120 77.5 77.2 55 59.8 0.00 92.7 1,012.2 0.2 SE | 139 1.1 SE | 138 263 -43 0.0 0.0 - 7.2 0.00
8/28/26 - 0110 77.8 77.4 55 59.9 0.00 92.7 1,012.2 0.0 S | 171 0.5 S | 179 263 -46 0.0 0.0 - 7.2 0.00
8/28/26 - 0100 78.0 77.6 54 60.0 0.00 92.9 1,012.2 0.0 N | 0 0.0 SW | 215 263 -45 0.0 0.0 - 7.2 0.00
8/28/26 - 0050 77.8 77.5 56 60.8 0.00 92.7 1,012.2 0.2 SSW | 208 0.9 SSW | 196 263 -43 0.0 0.0 - 7.2 0.00
8/28/26 - 0040 78.4 77.8 57 61.7 0.00 92.5 1,012.2 0.3 SSE | 150 1.2 SE | 134 263 -43 0.0 0.0 - 7.2 0.00
8/28/26 - 0030 78.1 77.6 57 61.7 0.00 92.4 1,012.1 0.9 SSW | 193 2.1 SW | 215 263 -43 0.0 0.0 - 7.2 0.00
8/28/26 - 0020 78.6 77.8 54 60.4 0.00 92.3 1,012.2 0.5 SSW | 203 2.1 SSW | 212 263 -45 0.0 0.0 - 7.2 0.00
8/28/26 - 0010 78.4 78.0 54 60.5 0.00 92.1 1,012.2 0.3 SE | 137 1.0 SE | 136 262 -46 0.0 0.0 - 7.2 0.00
8/28/26 - 0000 78.6 78.0 56 61.5 0.00 92.1 1,012.2 0.3 S | 173 1.4 S | 189 262 -48 0.0 0.0 - 7.2 0.00
8/27/26 - 2350 79.3 78.4 56 61.6 0.00 92.2 1,012.1 0.8 SSW | 193 1.9 SSW | 200 262 -49 0.0 0.0 - 7.2 0.00
8/27/26 - 2340 80.1 79.2 54 61.7 0.00 92.1 1,011.9 0.1 SSW | 197 1.4 SSW | 197 262 -49 0.0 0.0 - 7.2 0.00
8/27/26 - 2330 80.4 79.9 54 61.9 0.00 92.2 1,012.0 0.0 N | 0 0.0 SW | 221 262 -49 0.0 0.0 - 7.2 0.00
Max 107.0 104.9 90 65.5 0.00 93.5 1,017.5 6.5 - 13.9 - 310 584 4.6 22.8 96.2 7.2 0.00
Avg 77.7 76.8 50 54.0 0.00 89.0 1,014.0 1.4 - 3.4 - 261 118 0.7 7.0 50.8 6.3 -
Min 55.9 55.5 12 26.3 0.00 83.9 1,010.6 0.0 - 0.0 - 173 -96 0.0 0.0 8.3 5.3 0.00
Total - - - - 0.00 - - - - - - - - - - - - -